Observation data for Wall on 03/29/2020      Previous  Date  Next       Current Mesonet Observations  Soil Data  Daily Summary Page  Observations in Plain Language
KWA1 290500Z 18003KT 08/M03 A3007 RMK A01 T00821027  RH  046%=      5-min Rain = 0
KWA1 290501Z 19003KT 08/M03 A3007 RMK A01 T00811027  RH  047%=      5-min Rain = 0
KWA1 290502Z 19003KT 08/M03 A3007 RMK A01 T00801025  RH  047%=      5-min Rain = 0
KWA1 290503Z 20004KT 08/M03 A3007 RMK A01 T00801025  RH  048%=      5-min Rain = 0
KWA1 290504Z 20004KT 08/M03 A3007 RMK A01 T00801026  RH  047%=      5-min Rain = 0
KWA1 290505Z 20004KT 08/M03 A3007 RMK A01 T00821027  RH  046%=      5-min Rain = 0
KWA1 290506Z 20003KT 08/M03 A3007 RMK A01 T00841031  RH  044%=      5-min Rain = 0
KWA1 290507Z 20003KT 08/M04 A3007 RMK A01 T00821037  RH  043%=      5-min Rain = 0
KWA1 290508Z 21003KT 08/M04 A3007 RMK A01 T00781038  RH  044%=      5-min Rain = 0
KWA1 290509Z 21003KT 08/M04 A3007 RMK A01 T00761036  RH  045%=      5-min Rain = 0
KWA1 290510Z 21003KT 08/M04 A3007 RMK A01 T00761039  RH  044%=      5-min Rain = 0
KWA1 290511Z 22003KT 07/M04 A3007 RMK A01 T00741043  RH  043%=      5-min Rain = 0
KWA1 290512Z 22003KT 07/M04 A3007 RMK A01 T00741041  RH  044%=      5-min Rain = 0
KWA1 290513Z 22003KT 07/M04 A3007 RMK A01 T00741041  RH  044%=      5-min Rain = 0
KWA1 290514Z 22003KT 08/M04 A3007 RMK A01 T00751042  RH  043%=      5-min Rain = 0
KWA1 290515Z 23004KT 08/M04 A3007 RMK A01 T00751042  RH  043%=      5-min Rain = 0
KWA1 290516Z 23004KT 08/M04 A3007 RMK A01 T00761038  RH  044%=      5-min Rain = 0
KWA1 290517Z 23004KT 08/M04 A3007 RMK A01 T00771037  RH  044%=      5-min Rain = 0
KWA1 290518Z 23004KT 08/M04 A3007 RMK A01 T00771038  RH  044%=      5-min Rain = 0
KWA1 290519Z 23004KT 08/M04 A3007 RMK A01 T00761040  RH  044%=      5-min Rain = 0
KWA1 290520Z 23005KT 08/M04 A3007 RMK A01 T00751039  RH  044%=      5-min Rain = 0
KWA1 290521Z 23004KT 08/M04 A3007 RMK A01 T00751039  RH  044%=      5-min Rain = 0
KWA1 290522Z 23005KT 07/M04 A3007 RMK A01 T00741039  RH  044%=      5-min Rain = 0
KWA1 290523Z 23005KT 07/M04 A3007 RMK A01 T00731040  RH  044%=      5-min Rain = 0
KWA1 290524Z 23005KT 07/M04 A3007 RMK A01 T00711041  RH  045%=      5-min Rain = 0
KWA1 290525Z 23005KT 07/M04 A3007 RMK A01 T00701042  RH  045%=      5-min Rain = 0
KWA1 290526Z 23005KT 07/M04 A3007 RMK A01 T00691043  RH  045%=      5-min Rain = 0
KWA1 290527Z 23005KT 07/M04 A3007 RMK A01 T00681042  RH  045%=      5-min Rain = 0
KWA1 290528Z 23005KT 07/M04 A3007 RMK A01 T00681040  RH  046%=      5-min Rain = 0
KWA1 290529Z 23005KT 07/M04 A3007 RMK A01 T00681039  RH  046%=      5-min Rain = 0
KWA1 290530Z 24004KT 07/M04 A3007 RMK A01 T00691037  RH  047%=      5-min Rain = 0
KWA1 290531Z 24004KT 07/M04 A3007 RMK A01 T00711035  RH  047%=      5-min Rain = 0
KWA1 290532Z 25004KT 07/M04 A3007 RMK A01 T00721035  RH  047%=      5-min Rain = 0
KWA1 290533Z 25004KT 07/M03 A3007 RMK A01 T00731034  RH  047%=      5-min Rain = 0
KWA1 290534Z 25003KT 07/M03 A3007 RMK A01 T00741032  RH  047%=      5-min Rain = 0
KWA1 290535Z 25003KT 07/M03 A3007 RMK A01 T00741034  RH  046%=      5-min Rain = 0
KWA1 290536Z 25003KT 07/M04 A3007 RMK A01 T00721038  RH  045%=      5-min Rain = 0
KWA1 290537Z 25003KT 07/M04 A3007 RMK A01 T00701040  RH  045%=      5-min Rain = 0
KWA1 290538Z 25003KT 07/M04 A3007 RMK A01 T00681039  RH  046%=      5-min Rain = 0
KWA1 290539Z 24003KT 07/M04 A3007 RMK A01 T00681035  RH  048%=      5-min Rain = 0
KWA1 290540Z 24003KT 07/M04 A3007 RMK A01 T00681036  RH  047%=      5-min Rain = 0
KWA1 290541Z 24003KT 07/M04 A3007 RMK A01 T00691036  RH  047%=      5-min Rain = 0
KWA1 290542Z 23003KT 07/M03 A3007 RMK A01 T00691034  RH  048%=      5-min Rain = 0
KWA1 290543Z 22003KT 07/M03 A3007 RMK A01 T00701031  RH  048%=      5-min Rain = 0
KWA1 290544Z 20004KT 07/M03 A3007 RMK A01 T00721032  RH  048%=      5-min Rain = 0
KWA1 290545Z 18004KT 07/M03 A3007 RMK A01 T00721031  RH  048%=      5-min Rain = 0
KWA1 290546Z 19004KT 07/M03 A3007 RMK A01 T00721028  RH  049%=      5-min Rain = 0
KWA1 290547Z 20004KT 07/M03 A3007 RMK A01 T00711025  RH  050%=      5-min Rain = 0
KWA1 290548Z 20004KT 07/M03 A3007 RMK A01 T00711026  RH  050%=      5-min Rain = 0
KWA1 290549Z 20004KT 07/M03 A3007 RMK A01 T00721028  RH  049%=      5-min Rain = 0
KWA1 290550Z 20004KT 07/M03 A3007 RMK A01 T00721028  RH  049%=      5-min Rain = 0
KWA1 290551Z 20004KT 07/M03 A3008 RMK A01 T00731027  RH  049%=      5-min Rain = 0
KWA1 290552Z 21004KT 07/M03 A3008 RMK A01 T00721028  RH  049%=      5-min Rain = 0
KWA1 290553Z 21004KT 07/M03 A3008 RMK A01 T00721028  RH  049%=      5-min Rain = 0
KWA1 290554Z 21005KT 07/M03 A3008 RMK A01 T00711028  RH  049%=      5-min Rain = 0
KWA1 290555Z 20005KT 07/M03 A3008 RMK A01 T00711026  RH  050%=      5-min Rain = 0
KWA1 290556Z 20005KT 07/M03 A3008 RMK A01 T00701028  RH  050%=      5-min Rain = 0
KWA1 290557Z 19006KT 07/M03 A3008 RMK A01 T00681034  RH  048%=      5-min Rain = 0
KWA1 290558Z 19006KT 07/M03 A3008 RMK A01 T00661030  RH  050%=      5-min Rain = 0
KWA1 290559Z 19007KT 07/M03 A3008 RMK A01 T00661026  RH  052%=      5-min Rain = 0
KWA1 290600Z 19007KT 07/M03 A3008 RMK A01 T00661025  RH  052%=      5-min Rain = 0
KWA1 290601Z 19007KT 07/M03 A3008 RMK A01 T00661025  RH  052%=      5-min Rain = 0
KWA1 290602Z 19006KT 07/M02 A3008 RMK A01 T00661024  RH  052%=      5-min Rain = 0
KWA1 290603Z 19006KT 07/M03 A3008 RMK A01 T00661026  RH  052%=      5-min Rain = 0
KWA1 290604Z 19007KT 06/M03 A3008 RMK A01 T00641029  RH  051%=      5-min Rain = 0
KWA1 290605Z 19006KT 06/M03 A3008 RMK A01 T00631029  RH  052%=      5-min Rain = 0
KWA1 290606Z 20006KT 06/M03 A3008 RMK A01 T00621029  RH  052%=      5-min Rain = 0
KWA1 290607Z 20006KT 06/M03 A3008 RMK A01 T00611028  RH  053%=      5-min Rain = 0
KWA1 290608Z 20006KT 06/M03 A3008 RMK A01 T00621028  RH  053%=      5-min Rain = 0
KWA1 290609Z 20006KT 06/M03 A3008 RMK A01 T00621030  RH  052%=      5-min Rain = 0
KWA1 290610Z 21006KT 06/M03 A3008 RMK A01 T00611033  RH  051%=      5-min Rain = 0
KWA1 290611Z 21006KT 06/M04 A3008 RMK A01 T00601035  RH  051%=      5-min Rain = 0
KWA1 290612Z 21006KT 06/M04 A3008 RMK A01 T00601035  RH  051%=      5-min Rain = 0
KWA1 290613Z 21006KT 06/M04 A3008 RMK A01 T00591035  RH  051%=      5-min Rain = 0
KWA1 290614Z 21005KT 06/M04 A3008 RMK A01 T00591035  RH  051%=      5-min Rain = 0
KWA1 290615Z 21005KT 06/M03 A3008 RMK A01 T00591034  RH  052%=      5-min Rain = 0
KWA1 290616Z 21005KT 06/M03 A3008 RMK A01 T00581032  RH  052%=      5-min Rain = 0
KWA1 290617Z 21005KT 06/M03 A3008 RMK A01 T00581033  RH  052%=      5-min Rain = 0
KWA1 290618Z 21005KT 06/M04 A3008 RMK A01 T00581035  RH  051%=      5-min Rain = 0
KWA1 290619Z 21005KT 06/M03 A3008 RMK A01 T00581033  RH  052%=      5-min Rain = 0
KWA1 290620Z 21005KT 06/M03 A3008 RMK A01 T00581033  RH  052%=      5-min Rain = 0
KWA1 290621Z 21005KT 06/M03 A3008 RMK A01 T00591031  RH  053%=      5-min Rain = 0
KWA1 290622Z 21005KT 06/M03 A3008 RMK A01 T00601029  RH  053%=      5-min Rain = 0
KWA1 290623Z 21005KT 06/M03 A3008 RMK A01 T00621028  RH  052%=      5-min Rain = 0
KWA1 290624Z 21005KT 06/M03 A3008 RMK A01 T00631030  RH  051%=      5-min Rain = 0
KWA1 290625Z 22005KT 06/M03 A3008 RMK A01 T00631032  RH  051%=      5-min Rain = 0
KWA1 290626Z 21005KT 06/M03 A3008 RMK A01 T00631032  RH  051%=      5-min Rain = 0
KWA1 290627Z 22005KT 06/M03 A3008 RMK A01 T00641029  RH  051%=      5-min Rain = 0
KWA1 290628Z 22005KT 06/M03 A3008 RMK A01 T00631028  RH  052%=      5-min Rain = 0
KWA1 290629Z 22005KT 06/M03 A3008 RMK A01 T00631027  RH  052%=      5-min Rain = 0
KWA1 290630Z 21005KT 06/M03 A3008 RMK A01 T00611033  RH  051%=      5-min Rain = 0
KWA1 290631Z 21005KT 06/M04 A3008 RMK A01 T00591036  RH  051%=      5-min Rain = 0
KWA1 290632Z 21006KT 06/M04 A3008 RMK A01 T00581035  RH  051%=      5-min Rain = 0
KWA1 290633Z 21005KT 06/M03 A3008 RMK A01 T00581034  RH  052%=      5-min Rain = 0
KWA1 290634Z 22005KT 06/M03 A3008 RMK A01 T00571034  RH  052%=      5-min Rain = 0
KWA1 290635Z 22005KT 06/M04 A3008 RMK A01 T00561036  RH  051%=      5-min Rain = 0
KWA1 290636Z 22005KT 06/M04 A3008 RMK A01 T00551036  RH  052%=      5-min Rain = 0
KWA1 290637Z 22005KT 06/M03 A3008 RMK A01 T00551034  RH  053%=      5-min Rain = 0
KWA1 290638Z 22005KT 06/M03 A3008 RMK A01 T00571029  RH  054%=      5-min Rain = 0
KWA1 290639Z 23004KT 06/M03 A3008 RMK A01 T00591027  RH  054%=      5-min Rain = 0
KWA1 290640Z 24004KT 06/M02 A3008 RMK A01 T00631022  RH  054%=      5-min Rain = 0
KWA1 290641Z 24004KT 07/M03 A3008 RMK A01 T00661025  RH  052%=      5-min Rain = 0
KWA1 290642Z 24005KT 07/M03 A3008 RMK A01 T00661028  RH  051%=      5-min Rain = 0
KWA1 290643Z 25004KT 07/M03 A3007 RMK A01 T00681029  RH  050%=      5-min Rain = 0
KWA1 290644Z 25005KT 07/M03 A3007 RMK A01 T00681031  RH  049%=      5-min Rain = 0
KWA1 290645Z 25005KT 07/M03 A3007 RMK A01 T00671031  RH  049%=      5-min Rain = 0
KWA1 290646Z 26005KT 07/M03 A3007 RMK A01 T00651031  RH  050%=      5-min Rain = 0
KWA1 290647Z 25005KT 07/M03 A3007 RMK A01 T00651025  RH  053%=      5-min Rain = 0
KWA1 290648Z 25005KT 06/M03 A3007 RMK A01 T00641026  RH  053%=      5-min Rain = 0
KWA1 290649Z 26005KT 06/M03 A3007 RMK A01 T00621030  RH  052%=      5-min Rain = 0
KWA1 290650Z 26005KT 06/M03 A3007 RMK A01 T00601034  RH  051%=      5-min Rain = 0
KWA1 290651Z 26005KT 06/M03 A3007 RMK A01 T00601033  RH  051%=      5-min Rain = 0
KWA1 290652Z 25005KT 06/M03 A3007 RMK A01 T00611031  RH  052%=      5-min Rain = 0
KWA1 290653Z 25005KT 06/M03 A3007 RMK A01 T00621030  RH  052%=      5-min Rain = 0
KWA1 290654Z 26005KT 06/M03 A3007 RMK A01 T00631030  RH  051%=      5-min Rain = 0
KWA1 290655Z 27005KT 06/M03 A3007 RMK A01 T00621032  RH  051%=      5-min Rain = 0
KWA1 290656Z 27005KT 06/M03 A3007 RMK A01 T00611031  RH  051%=      5-min Rain = 0
KWA1 290657Z 27005KT 06/M03 A3007 RMK A01 T00621029  RH  052%=      5-min Rain = 0
KWA1 290658Z 27005KT 06/M03 A3007 RMK A01 T00611031  RH  051%=      5-min Rain = 0
KWA1 290659Z 28006KT 06/M03 A3007 RMK A01 T00591032  RH  052%=      5-min Rain = 0
KWA1 290700Z 28005KT 06/M03 A3007 RMK A01 T00591028  RH  054%=      5-min Rain = 0
KWA1 290701Z 28006KT 06/M03 A3007 RMK A01 T00591028  RH  054%=      5-min Rain = 0
KWA1 290702Z 28006KT 06/M03 A3007 RMK A01 T00601029  RH  053%=      5-min Rain = 0
KWA1 290703Z 28006KT 06/M03 A3007 RMK A01 T00621028  RH  052%=      5-min Rain = 0
KWA1 290704Z 28006KT 06/M03 A3007 RMK A01 T00631025  RH  053%=      5-min Rain = 0
KWA1 290705Z 28006KT 06/M02 A3007 RMK A01 T00631022  RH  055%=      5-min Rain = 0
KWA1 290706Z 28006KT 06/M02 A3007 RMK A01 T00621019  RH  056%=      5-min Rain = 0
KWA1 290707Z 27006KT 06/M02 A3007 RMK A01 T00621020  RH  056%=      5-min Rain = 0
KWA1 290708Z 27006KT 06/M02 A3007 RMK A01 T00611023  RH  055%=      5-min Rain = 0
KWA1 290709Z 27006KT 06/M02 A3007 RMK A01 T00611023  RH  055%=      5-min Rain = 0
KWA1 290710Z 26006KT 06/M02 A3007 RMK A01 T00601024  RH  055%=      5-min Rain = 0
KWA1 290711Z 26006KT 06/M03 A3007 RMK A01 T00581025  RH  055%=      5-min Rain = 0
KWA1 290712Z 26006KT 06/M03 A3007 RMK A01 T00571027  RH  055%=      5-min Rain = 0
KWA1 290713Z 25006KT 06/M03 A3007 RMK A01 T00571028  RH  054%=      5-min Rain = 0
KWA1 290714Z 25006KT 06/M03 A3007 RMK A01 T00571030  RH  053%=      5-min Rain = 0
KWA1 290715Z 25006KT 06/M03 A3007 RMK A01 T00581027  RH  054%=      5-min Rain = 0
KWA1 290716Z 25006KT 06/M03 A3007 RMK A01 T00621030  RH  052%=      5-min Rain = 0
KWA1 290717Z 24006KT 06/M04 A3007 RMK A01 T00621035  RH  050%=      5-min Rain = 0
KWA1 290718Z 23006KT 06/M04 A3007 RMK A01 T00591039  RH  049%=      5-min Rain = 0
KWA1 290719Z 23006KT 06/M04 A3008 RMK A01 T00571043  RH  049%=      5-min Rain = 0
KWA1 290720Z 24007KT 06/M05 A3008 RMK A01 T00561046  RH  048%=      5-min Rain = 0
KWA1 290721Z 24007KT 06/M05 A3008 RMK A01 T00561047  RH  047%=      5-min Rain = 0
KWA1 290722Z 24008KT 06/M05 A3008 RMK A01 T00561046  RH  048%=      5-min Rain = 0
KWA1 290723Z 24008KT 06/M05 A3008 RMK A01 T00551045  RH  048%=      5-min Rain = 0
KWA1 290724Z 24007KT 05/M05 A3008 RMK A01 T00531045  RH  049%=      5-min Rain = 0
KWA1 290725Z 23008KT 05/M05 A3008 RMK A01 T00521045  RH  050%=      5-min Rain = 0
KWA1 290726Z 23008KT 05/M04 A3008 RMK A01 T00521044  RH  050%=      5-min Rain = 0
KWA1 290727Z 23008KT 05/M04 A3008 RMK A01 T00531043  RH  050%=      5-min Rain = 0
KWA1 290728Z 22007KT 05/M04 A3008 RMK A01 T00541043  RH  050%=      5-min Rain = 0
KWA1 290729Z 20008KT 05/M04 A3008 RMK A01 T00531042  RH  050%=      5-min Rain = 0
KWA1 290730Z 20008KT 05/M04 A3008 RMK A01 T00531041  RH  051%=      5-min Rain = 0
KWA1 290731Z 21009KT 05/M04 A3008 RMK A01 T00541040  RH  051%=      5-min Rain = 0
KWA1 290732Z 21008KT 05/M04 A3008 RMK A01 T00541039  RH  051%=      5-min Rain = 0
KWA1 290733Z 21009KT 06/M04 A3008 RMK A01 T00551039  RH  051%=      5-min Rain = 0
KWA1 290734Z 21008KT 06/M04 A3008 RMK A01 T00561040  RH  050%=      5-min Rain = 0
KWA1 290735Z 21008KT 06/M04 A3008 RMK A01 T00561040  RH  050%=      5-min Rain = 0
KWA1 290736Z 21008KT 06/M04 A3008 RMK A01 T00571040  RH  050%=      5-min Rain = 0
KWA1 290737Z 22007KT 06/M04 A3008 RMK A01 T00581039  RH  050%=      5-min Rain = 0
KWA1 290738Z 21008KT 06/M04 A3008 RMK A01 T00591039  RH  050%=      5-min Rain = 0
KWA1 290739Z 22008KT 06/M04 A3008 RMK A01 T00591039  RH  050%=      5-min Rain = 0
KWA1 290740Z 22008KT 06/M04 A3008 RMK A01 T00581038  RH  050%=      5-min Rain = 0
KWA1 290741Z 22008KT 06/M04 A3008 RMK A01 T00581037  RH  051%=      5-min Rain = 0
KWA1 290742Z 23009KT 06/M04 A3008 RMK A01 T00571036  RH  051%=      5-min Rain = 0
KWA1 290743Z 23009KT 06/M04 A3008 RMK A01 T00571036  RH  051%=      5-min Rain = 0
KWA1 290744Z 23009KT 06/M04 A3008 RMK A01 T00571036  RH  051%=      5-min Rain = 0
KWA1 290745Z 23009KT 06/M04 A3008 RMK A01 T00571035  RH  052%=      5-min Rain = 0
KWA1 290746Z 23009KT 06/M04 A3008 RMK A01 T00561035  RH  052%=      5-min Rain = 0
KWA1 290747Z 23009KT 06/M04 A3009 RMK A01 T00561035  RH  052%=      5-min Rain = 0
KWA1 290748Z 23009KT 06/M03 A3009 RMK A01 T00561034  RH  052%=      5-min Rain = 0
KWA1 290749Z 23009KT 06/M03 A3009 RMK A01 T00571034  RH  052%=      5-min Rain = 0
KWA1 290750Z 23009KT 06/M03 A3009 RMK A01 T00571033  RH  052%=      5-min Rain = 0
KWA1 290751Z 22009KT 06/M03 A3009 RMK A01 T00571033  RH  053%=      5-min Rain = 0
KWA1 290752Z 22009KT 06/M03 A3009 RMK A01 T00571033  RH  052%=      5-min Rain = 0
KWA1 290753Z 22009KT 06/M03 A3009 RMK A01 T00571033  RH  052%=      5-min Rain = 0
KWA1 290754Z 22008KT 06/M03 A3009 RMK A01 T00561032  RH  053%=      5-min Rain = 0
KWA1 290755Z 22008KT 06/M03 A3009 RMK A01 T00551032  RH  053%=      5-min Rain = 0
KWA1 290756Z 22008KT 06/M03 A3009 RMK A01 T00551032  RH  054%=      5-min Rain = 0
KWA1 290757Z 21008KT 05/M03 A3009 RMK A01 T00541032  RH  054%=      5-min Rain = 0
KWA1 290758Z 21008KT 06/M03 A3009 RMK A01 T00551032  RH  054%=      5-min Rain = 0
KWA1 290759Z 21009KT 06/M03 A3009 RMK A01 T00561032  RH  053%=      5-min Rain = 0
KWA1 290800Z 21008KT 06/M03 A3009 RMK A01 T00561033  RH  052%=      5-min Rain = 0
KWA1 290801Z 20009KT 06/M03 A3009 RMK A01 T00571033  RH  052%=      5-min Rain = 0
KWA1 290802Z 20009KT 06/M03 A3009 RMK A01 T00581031  RH  053%=      5-min Rain = 0
KWA1 290803Z 20009KT 06/M03 A3009 RMK A01 T00581032  RH  052%=      5-min Rain = 0
KWA1 290804Z 20009KT 06/M03 A3009 RMK A01 T00591032  RH  052%=      5-min Rain = 0
KWA1 290805Z 21010KT 06/M03 A3009 RMK A01 T00591032  RH  052%=      5-min Rain = 0
KWA1 290806Z 21010KT 06/M03 A3009 RMK A01 T00591033  RH  052%=      5-min Rain = 0
KWA1 290807Z 21010KT 06/M03 A3009 RMK A01 T00591033  RH  052%=      5-min Rain = 0
KWA1 290808Z 21009KT 06/M03 A3009 RMK A01 T00591032  RH  052%=      5-min Rain = 0
KWA1 290809Z 21009KT 06/M03 A3009 RMK A01 T00581031  RH  052%=      5-min Rain = 0
KWA1 290810Z 22009KT 06/M03 A3009 RMK A01 T00581031  RH  053%=      5-min Rain = 0
KWA1 290811Z 22009KT 06/M03 A3009 RMK A01 T00581033  RH  052%=      5-min Rain = 0
KWA1 290812Z 22009KT 06/M04 A3009 RMK A01 T00581035  RH  051%=      5-min Rain = 0
KWA1 290813Z 21009KT 06/M04 A3009 RMK A01 T00601035  RH  051%=      5-min Rain = 0
KWA1 290814Z 22009KT 06/M03 A3009 RMK A01 T00611034  RH  050%=      5-min Rain = 0
KWA1 290815Z 22008KT 06/M04 A3009 RMK A01 T00621035  RH  050%=      5-min Rain = 0
KWA1 290816Z 22007KT 06/M03 A3009 RMK A01 T00631034  RH  050%=      5-min Rain = 0
KWA1 290817Z 23007KT 06/M04 A3009 RMK A01 T00641035  RH  049%=      5-min Rain = 0
KWA1 290818Z 22006KT 06/M03 A3009 RMK A01 T00631034  RH  050%=      5-min Rain = 0
KWA1 290819Z 22006KT 06/M03 A3008 RMK A01 T00621031  RH  051%=      5-min Rain = 0
KWA1 290820Z 22005KT 06/M03 A3008 RMK A01 T00601030  RH  053%=      5-min Rain = 0
KWA1 290821Z 22005KT 06/M03 A3008 RMK A01 T00581030  RH  053%=      5-min Rain = 0
KWA1 290822Z 22005KT 06/M03 A3008 RMK A01 T00571030  RH  054%=      5-min Rain = 0
KWA1 290823Z 22005KT 06/M03 A3008 RMK A01 T00571029  RH  054%=      5-min Rain = 0
KWA1 290824Z 23006KT 06/M03 A3008 RMK A01 T00571029  RH  054%=      5-min Rain = 0
KWA1 290825Z 23006KT 06/M03 A3008 RMK A01 T00561030  RH  054%=      5-min Rain = 0
KWA1 290826Z 23006KT 06/M03 A3009 RMK A01 T00561030  RH  054%=      5-min Rain = 0
KWA1 290827Z 23006KT 06/M03 A3009 RMK A01 T00571030  RH  054%=      5-min Rain = 0
KWA1 290828Z 23005KT 06/M03 A3009 RMK A01 T00571029  RH  054%=      5-min Rain = 0
KWA1 290829Z 23005KT 06/M03 A3009 RMK A01 T00571029  RH  054%=      5-min Rain = 0
KWA1 290830Z 23005KT 06/M03 A3009 RMK A01 T00561030  RH  054%=      5-min Rain = 0
KWA1 290831Z 23005KT 06/M03 A3009 RMK A01 T00561029  RH  054%=      5-min Rain = 0
KWA1 290832Z 23005KT 06/M03 A3008 RMK A01 T00561027  RH  055%=      5-min Rain = 0
KWA1 290833Z 24006KT 06/M03 A3008 RMK A01 T00551026  RH  056%=      5-min Rain = 0
KWA1 290834Z 24006KT 06/M03 A3008 RMK A01 T00551027  RH  056%=      5-min Rain = 0
KWA1 290835Z 24006KT 05/M03 A3008 RMK A01 T00541027  RH  056%=      5-min Rain = 0
KWA1 290836Z 24006KT 05/M03 A3008 RMK A01 T00541026  RH  056%=      5-min Rain = 0
KWA1 290837Z 24006KT 05/M03 A3008 RMK A01 T00541026  RH  056%=      5-min Rain = 0
KWA1 290838Z 24007KT 05/M03 A3008 RMK A01 T00531026  RH  057%=      5-min Rain = 0
KWA1 290839Z 24007KT 05/M03 A3008 RMK A01 T00531026  RH  057%=      5-min Rain = 0
KWA1 290840Z 23007KT 05/M03 A3008 RMK A01 T00531026  RH  057%=      5-min Rain = 0
KWA1 290841Z 23007KT 05/M03 A3008 RMK A01 T00521026  RH  057%=      5-min Rain = 0
KWA1 290842Z 23007KT 05/M03 A3008 RMK A01 T00521026  RH  057%=      5-min Rain = 0
KWA1 290843Z 23007KT 05/M03 A3008 RMK A01 T00521026  RH  057%=      5-min Rain = 0
KWA1 290844Z 23007KT 05/M03 A3008 RMK A01 T00531025  RH  057%=      5-min Rain = 0
KWA1 290845Z 23007KT 05/M03 A3008 RMK A01 T00541025  RH  057%=      5-min Rain = 0
KWA1 290846Z 23007KT 05/M03 A3008 RMK A01 T00541025  RH  057%=      5-min Rain = 0
KWA1 290847Z 23007KT 06/M03 A3008 RMK A01 T00551025  RH  056%=      5-min Rain = 0
KWA1 290848Z 23007KT 06/M03 A3008 RMK A01 T00561025  RH  056%=      5-min Rain = 0
KWA1 290849Z 23007KT 06/M02 A3008 RMK A01 T00561024  RH  056%=      5-min Rain = 0
KWA1 290850Z 23007KT 06/M02 A3008 RMK A01 T00571023  RH  056%=      5-min Rain = 0
KWA1 290851Z 23007KT 06/M02 A3008 RMK A01 T00571024  RH  056%=      5-min Rain = 0
KWA1 290852Z 23007KT 06/M02 A3008 RMK A01 T00571024  RH  056%=      5-min Rain = 0
KWA1 290853Z 23007KT 06/M02 A3008 RMK A01 T00561024  RH  056%=      5-min Rain = 0
KWA1 290854Z 24007KT 06/M02 A3008 RMK A01 T00561024  RH  057%=      5-min Rain = 0
KWA1 290855Z 24007KT 06/M02 A3008 RMK A01 T00551024  RH  057%=      5-min Rain = 0
KWA1 290856Z 24007KT 06/M02 A3008 RMK A01 T00551024  RH  057%=      5-min Rain = 0
KWA1 290857Z 24007KT 06/M02 A3008 RMK A01 T00551023  RH  057%=      5-min Rain = 0
KWA1 290858Z 24007KT 06/M02 A3008 RMK A01 T00551023  RH  057%=      5-min Rain = 0
KWA1 290859Z 24006KT 06/M02 A3008 RMK A01 T00561022  RH  057%=      5-min Rain = 0
KWA1 290900Z 24006KT 06/M02 A3008 RMK A01 T00561022  RH  057%=      5-min Rain = 0
KWA1 290901Z 25006KT 06/M02 A3008 RMK A01 T00561022  RH  057%=      5-min Rain = 0
KWA1 290902Z 25006KT 06/M02 A3008 RMK A01 T00561021  RH  057%=      5-min Rain = 0
KWA1 290903Z 26006KT 06/M02 A3008 RMK A01 T00561021  RH  057%=      5-min Rain = 0
KWA1 290904Z 26005KT 06/M02 A3008 RMK A01 T00561021  RH  057%=      5-min Rain = 0
KWA1 290905Z 26005KT 06/M02 A3008 RMK A01 T00561021  RH  058%=      5-min Rain = 0
KWA1 290906Z 25005KT 06/M02 A3008 RMK A01 T00561020  RH  058%=      5-min Rain = 0
KWA1 290907Z 26006KT 06/M02 A3008 RMK A01 T00561019  RH  059%=      5-min Rain = 0
KWA1 290908Z 26006KT 06/M02 A3008 RMK A01 T00551019  RH  059%=      5-min Rain = 0
KWA1 290909Z 26006KT 06/M02 A3008 RMK A01 T00561018  RH  059%=      5-min Rain = 0
KWA1 290910Z 26006KT 06/M02 A3008 RMK A01 T00561018  RH  059%=      5-min Rain = 0
KWA1 290911Z 26006KT 06/M02 A3008 RMK A01 T00561017  RH  059%=      5-min Rain = 0
KWA1 290912Z 26006KT 06/M02 A3008 RMK A01 T00561016  RH  060%=      5-min Rain = 0
KWA1 290913Z 26007KT 06/M02 A3008 RMK A01 T00571015  RH  060%=      5-min Rain = 0
KWA1 290914Z 26007KT 06/M01 A3008 RMK A01 T00581013  RH  060%=      5-min Rain = 0
KWA1 290915Z 26007KT 06/M01 A3008 RMK A01 T00581013  RH  060%=      5-min Rain = 0
KWA1 290916Z 26007KT 06/M01 A3008 RMK A01 T00581013  RH  060%=      5-min Rain = 0
KWA1 290917Z 26007KT 06/M01 A3008 RMK A01 T00581013  RH  060%=      5-min Rain = 0
KWA1 290918Z 26007KT 06/M01 A3008 RMK A01 T00581013  RH  060%=      5-min Rain = 0
KWA1 290919Z 26007KT 06/M01 A3008 RMK A01 T00581013  RH  060%=      5-min Rain = 0
KWA1 290920Z 26007KT 06/M01 A3008 RMK A01 T00581013  RH  060%=      5-min Rain = 0
KWA1 290921Z 26008KT 06/M01 A3008 RMK A01 T00581013  RH  060%=      5-min Rain = 0
KWA1 290922Z 26007KT 06/M01 A3008 RMK A01 T00581013  RH  060%=      5-min Rain = 0
KWA1 290923Z 26007KT 06/M01 A3008 RMK A01 T00581013  RH  060%=      5-min Rain = 0
KWA1 290924Z 26007KT 06/M01 A3008 RMK A01 T00581013  RH  060%=      5-min Rain = 0
KWA1 290925Z 27007KT 06/M01 A3008 RMK A01 T00591012  RH  060%=      5-min Rain = 0
KWA1 290926Z 27006KT 06/M01 A3008 RMK A01 T00581012  RH  061%=      5-min Rain = 0
KWA1 290927Z 26007KT 06/M01 A3008 RMK A01 T00581011  RH  061%=      5-min Rain = 0
KWA1 290928Z 26007KT 06/M01 A3008 RMK A01 T00581010  RH  062%=      5-min Rain = 0
KWA1 290929Z 27006KT 06/M01 A3008 RMK A01 T00581009  RH  062%=      5-min Rain = 0
KWA1 290930Z 27006KT 06/M01 A3008 RMK A01 T00581009  RH  062%=      5-min Rain = 0
KWA1 290931Z 27006KT 06/M01 A3008 RMK A01 T00571009  RH  062%=      5-min Rain = 0
KWA1 290932Z 27006KT 06/M01 A3008 RMK A01 T00571009  RH  062%=      5-min Rain = 0
KWA1 290933Z 26006KT 06/M01 A3008 RMK A01 T00571010  RH  062%=      5-min Rain = 0
KWA1 290934Z 27006KT 06/M01 A3008 RMK A01 T00571010  RH  062%=      5-min Rain = 0
KWA1 290935Z 27006KT 06/M01 A3008 RMK A01 T00571010  RH  062%=      5-min Rain = 0
KWA1 290936Z 27006KT 06/M01 A3008 RMK A01 T00571010  RH  062%=      5-min Rain = 0
KWA1 290937Z 27006KT 06/M01 A3007 RMK A01 T00571010  RH  062%=      5-min Rain = 0
KWA1 290938Z 27006KT 06/M01 A3007 RMK A01 T00571010  RH  062%=      5-min Rain = 0
KWA1 290939Z 28007KT 06/M01 A3007 RMK A01 T00571009  RH  062%=      5-min Rain = 0
KWA1 290940Z 28008KT 06/M01 A3007 RMK A01 T00561009  RH  063%=      5-min Rain = 0
KWA1 290941Z 28008KT 06/M01 A3007 RMK A01 T00561009  RH  063%=      5-min Rain = 0
KWA1 290942Z 28008KT 06/M01 A3007 RMK A01 T00551010  RH  063%=      5-min Rain = 0
KWA1 290943Z 28007KT 06/M01 A3007 RMK A01 T00551011  RH  062%=      5-min Rain = 0
KWA1 290944Z 28007KT 06/M01 A3007 RMK A01 T00561011  RH  062%=      5-min Rain = 0
KWA1 290945Z 28007KT 06/M01 A3007 RMK A01 T00551011  RH  062%=      5-min Rain = 0
KWA1 290946Z 28007KT 05/M01 A3007 RMK A01 T00541012  RH  062%=      5-min Rain = 0
KWA1 290947Z 28008KT 05/M01 A3007 RMK A01 T00541012  RH  062%=      5-min Rain = 0
KWA1 290948Z 28008KT 05/M01 A3007 RMK A01 T00531013  RH  063%=      5-min Rain = 0
KWA1 290949Z 28008KT 05/M01 A3007 RMK A01 T00521013  RH  063%=      5-min Rain = 0
KWA1 290950Z 28008KT 05/M01 A3007 RMK A01 T00511013  RH  063%=      5-min Rain = 0
KWA1 290951Z 29008KT 05/M01 A3007 RMK A01 T00511013  RH  063%=      5-min Rain = 0
KWA1 290952Z 29008KT 05/M01 A3007 RMK A01 T00501013  RH  063%=      5-min Rain = 0
KWA1 290953Z 29008KT 05/M01 A3007 RMK A01 T00501013  RH  063%=      5-min Rain = 0
KWA1 290954Z 29007KT 05/M01 A3007 RMK A01 T00501013  RH  064%=      5-min Rain = 0
KWA1 290955Z 29007KT 05/M01 A3007 RMK A01 T00501013  RH  064%=      5-min Rain = 0
KWA1 290956Z 29007KT 05/M01 A3007 RMK A01 T00501012  RH  064%=      5-min Rain = 0
KWA1 290957Z 29008KT 05/M01 A3007 RMK A01 T00501012  RH  064%=      5-min Rain = 0
KWA1 290958Z 29008KT 05/M01 A3007 RMK A01 T00511011  RH  064%=      5-min Rain = 0
KWA1 290959Z 29008KT 05/M01 A3007 RMK A01 T00501011  RH  065%=      5-min Rain = 0
KWA1 291000Z 28008KT 05/M01 A3007 RMK A01 T00501010  RH  065%=      5-min Rain = 0
KWA1 291001Z 27007KT 05/M01 A3007 RMK A01 T00491011  RH  065%=      5-min Rain = 0
KWA1 291002Z 27007KT 05/M01 A3007 RMK A01 T00491011  RH  065%=      5-min Rain = 0
KWA1 291003Z 27008KT 05/M01 A3007 RMK A01 T00491013  RH  064%=      5-min Rain = 0
KWA1 291004Z 27008KT 05/M02 A3007 RMK A01 T00491015  RH  063%=      5-min Rain = 0
KWA1 291005Z 27008KT 05/M02 A3008 RMK A01 T00491016  RH  063%=      5-min Rain = 0
KWA1 291006Z 26008KT 05/M02 A3008 RMK A01 T00491015  RH  063%=      5-min Rain = 0
KWA1 291007Z 26008KT 05/M02 A3008 RMK A01 T00491015  RH  063%=      5-min Rain = 0
KWA1 291008Z 26007KT 05/M02 A3008 RMK A01 T00481015  RH  064%=      5-min Rain = 0
KWA1 291009Z 26008KT 05/M01 A3008 RMK A01 T00481014  RH  064%=      5-min Rain = 0
KWA1 291010Z 26008KT 05/M01 A3008 RMK A01 T00481013  RH  064%=      5-min Rain = 0
KWA1 291011Z 25008KT 05/M01 A3008 RMK A01 T00491013  RH  064%=      5-min Rain = 0
KWA1 291012Z 25007KT 05/M01 A3008 RMK A01 T00511012  RH  064%=      5-min Rain = 0
KWA1 291013Z 24006KT 05/M01 A3008 RMK A01 T00521013  RH  063%=      5-min Rain = 0
KWA1 291014Z 24007KT 05/M02 A3008 RMK A01 T00521015  RH  062%=      5-min Rain = 0
KWA1 291015Z 24008KT 05/M02 A3008 RMK A01 T00521015  RH  062%=      5-min Rain = 0
KWA1 291016Z 23008KT 05/M01 A3009 RMK A01 T00521013  RH  063%=      5-min Rain = 0
KWA1 291017Z 23008KT 05/M01 A3009 RMK A01 T00521013  RH  063%=      5-min Rain = 0
KWA1 291018Z 23008KT 05/M01 A3009 RMK A01 T00511014  RH  063%=      5-min Rain = 0
KWA1 291019Z 23009KT 05/M01 A3009 RMK A01 T00511013  RH  063%=      5-min Rain = 0
KWA1 291020Z 22008KT 05/M01 A3009 RMK A01 T00511013  RH  063%=      5-min Rain = 0
KWA1 291021Z 22008KT 05/M01 A3009 RMK A01 T00511013  RH  063%=      5-min Rain = 0
KWA1 291022Z 22008KT 05/M01 A3009 RMK A01 T00521013  RH  063%=      5-min Rain = 0
KWA1 291023Z 22007KT 05/M01 A301 RMK A01 T00511014  RH  063%=      5-min Rain = 0
KWA1 291024Z 22007KT 05/M01 A301 RMK A01 T00511014  RH  063%=      5-min Rain = 0
KWA1 291025Z 23007KT 05/M01 A3009 RMK A01 T00521013  RH  063%=      5-min Rain = 0
KWA1 291026Z 23008KT 05/M01 A3009 RMK A01 T00531014  RH  062%=      5-min Rain = 0
KWA1 291027Z 23008KT 05/M01 A3009 RMK A01 T00531014  RH  062%=      5-min Rain = 0
KWA1 291028Z 24008KT 05/M01 A3009 RMK A01 T00541014  RH  061%=      5-min Rain = 0
KWA1 291029Z 24008KT 05/M02 A3009 RMK A01 T00541015  RH  061%=      5-min Rain = 0
KWA1 291030Z 25008KT 06/M02 A3009 RMK A01 T00551015  RH  061%=      5-min Rain = 0
KWA1 291031Z 25008KT 06/M02 A3009 RMK A01 T00561015  RH  060%=      5-min Rain = 0
KWA1 291032Z 26008KT 06/M02 A3009 RMK A01 T00571015  RH  060%=      5-min Rain = 0
KWA1 291033Z 26007KT 06/M02 A3009 RMK A01 T00571015  RH  060%=      5-min Rain = 0
KWA1 291034Z 27007KT 06/M01 A3009 RMK A01 T00571013  RH  061%=      5-min Rain = 0
KWA1 291035Z 27007KT 06/M01 A3009 RMK A01 T00571012  RH  061%=      5-min Rain = 0
KWA1 291036Z 28007KT 06/M01 A3009 RMK A01 T00581011  RH  061%=      5-min Rain = 0
KWA1 291037Z 29007KT 06/M01 A3009 RMK A01 T00581011  RH  061%=      5-min Rain = 0
KWA1 291038Z 29007KT 06/M01 A3009 RMK A01 T00581010  RH  062%=      5-min Rain = 0
KWA1 291039Z 34010G17KT 06/M01 A301 RMK A01 T00571010  RH  062%=      5-min Rain = 0
KWA1 291040Z 00015KT 05/M01 A301 RMK A01 T00541009  RH  064%=      5-min Rain = 0
KWA1 291041Z 36019G27KT 06/00 A301 RMK A01 T00560000  RH  068%=      5-min Rain = 0
KWA1 291042Z 36013KT 06/00 A3011 RMK A01 T00630004  RH  066%=      5-min Rain = 0
KWA1 291043Z 34011KT 06/00 A301 RMK A01 T006300-0  RH  064%=      5-min Rain = 0
KWA1 291044Z 00013KT 06/00 A3011 RMK A01 T00610001  RH  065%=      5-min Rain = 0
KWA1 291045Z 00012KT 06/00 A3011 RMK A01 T005900-0  RH  066%=      5-min Rain = 0
KWA1 291046Z 35008KT 06/00 A301 RMK A01 T00590000  RH  066%=      5-min Rain = 0
KWA1 291047Z 35008KT 06/00 A301 RMK A01 T00610002  RH  066%=      5-min Rain = 0
KWA1 291048Z 01011KT 06/00 A3011 RMK A01 T00620003  RH  066%=      5-min Rain = 0
KWA1 291049Z 00011KT 06/00 A3011 RMK A01 T00600001  RH  066%=      5-min Rain = 0
KWA1 291050Z 35010KT 06/00 A3011 RMK A01 T00570001  RH  067%=      5-min Rain = 0
KWA1 291051Z 35008KT 06/00 A3011 RMK A01 T00560002  RH  068%=      5-min Rain = 0
KWA1 291052Z 34007KT 06/00 A301 RMK A01 T00550004  RH  069%=      5-min Rain = 0
KWA1 291053Z 35006KT 06/00 A301 RMK A01 T00550004  RH  070%=      5-min Rain = 0
KWA1 291054Z 35005KT 06/00 A301 RMK A01 T00550004  RH  070%=      5-min Rain = 0
KWA1 291055Z 34006KT 06/00 A301 RMK A01 T00550004  RH  070%=      5-min Rain = 0
KWA1 291056Z 35005KT 06/01 A301 RMK A01 T00550005  RH  070%=      5-min Rain = 0
KWA1 291057Z 01005KT 06/00 A301 RMK A01 T00550004  RH  070%=      5-min Rain = 0
KWA1 291058Z 02006KT 06/00 A301 RMK A01 T00550003  RH  069%=      5-min Rain = 0
KWA1 291059Z 02006KT 05/M00 A3011 RMK A01 T00531002  RH  068%=      5-min Rain = 0
KWA1 291100Z 01006KT 05/M00 A3011 RMK A01 T00521002  RH  068%=      5-min Rain = 0
KWA1 291101Z 00005KT 05/M00 A3011 RMK A01 T00511002  RH  069%=      5-min Rain = 0
KWA1 291102Z 35004KT 05/M00 A3011 RMK A01 T00511001  RH  069%=      5-min Rain = 0
KWA1 291103Z 32002KT 05/00 A301 RMK A01 T005100-0  RH  069%=      5-min Rain = 0
KWA1 291104Z 27001KT 05/M00 A301 RMK A01 T00521002  RH  068%=      5-min Rain = 0
KWA1 291105Z 26002KT 05/M01 A301 RMK A01 T00501006  RH  067%=      5-min Rain = 0
KWA1 291106Z 27001KT 05/M01 A301 RMK A01 T00481008  RH  067%=      5-min Rain = 0
KWA1 291107Z 30001KT 05/M01 A301 RMK A01 T00471007  RH  068%=      5-min Rain = 0
KWA1 291108Z 33002KT 05/M01 A3011 RMK A01 T00461006  RH  069%=      5-min Rain = 0
KWA1 291109Z 34002KT 05/M00 A3011 RMK A01 T00461004  RH  070%=      5-min Rain = 0
KWA1 291110Z 33001KT 05/M00 A3011 RMK A01 T00471003  RH  070%=      5-min Rain = 0
KWA1 291111Z 32002KT 05/M00 A3011 RMK A01 T00471003  RH  070%=      5-min Rain = 0
KWA1 291112Z 30002KT 05/M01 A3012 RMK A01 T00471005  RH  069%=      5-min Rain = 0
KWA1 291113Z 30001KT 05/M01 A3011 RMK A01 T00471005  RH  069%=      5-min Rain = 0
KWA1 291114Z 30001KT 05/M01 A3011 RMK A01 T00461005  RH  069%=      5-min Rain = 0
KWA1 291115Z 00000KT 05/M01 A3011 RMK A01 T00461005  RH  070%=      5-min Rain = 0
KWA1 291116Z 30000KT 05/M00 A3012 RMK A01 T00461003  RH  070%=      5-min Rain = 0
KWA1 291117Z 00000KT 05/M01 A3012 RMK A01 T00461006  RH  069%=      5-min Rain = 0
KWA1 291118Z 18001KT 05/M01 A3012 RMK A01 T00451007  RH  069%=      5-min Rain = 0
KWA1 291119Z 19003KT 05/M01 A3012 RMK A01 T00451007  RH  069%=      5-min Rain = 0
KWA1 291120Z 20004KT 05/M01 A3012 RMK A01 T00451008  RH  069%=      5-min Rain = 0
KWA1 291121Z 21004KT 04/M01 A3012 RMK A01 T00431008  RH  069%=      5-min Rain = 0
KWA1 291122Z 21004KT 04/M01 A3013 RMK A01 T00421008  RH  070%=      5-min Rain = 0
KWA1 291123Z 22004KT 04/M01 A3013 RMK A01 T00421007  RH  070%=      5-min Rain = 0
KWA1 291124Z 22004KT 04/M01 A3013 RMK A01 T00411007  RH  071%=      5-min Rain = 0
KWA1 291125Z 22005KT 04/M01 A3013 RMK A01 T00411006  RH  072%=      5-min Rain = 0
KWA1 291126Z 23005KT 04/M01 A3013 RMK A01 T00411006  RH  072%=      5-min Rain = 0
KWA1 291127Z 23006KT 04/M01 A3013 RMK A01 T00421007  RH  071%=      5-min Rain = 0
KWA1 291128Z 24006KT 04/M01 A3013 RMK A01 T00421008  RH  070%=      5-min Rain = 0
KWA1 291129Z 24007KT 04/M01 A3013 RMK A01 T00431008  RH  070%=      5-min Rain = 0
KWA1 291130Z 24007KT 04/M01 A3013 RMK A01 T00431007  RH  070%=      5-min Rain = 0
KWA1 291131Z 24007KT 04/M01 A3013 RMK A01 T00431007  RH  070%=      5-min Rain = 0
KWA1 291132Z 24006KT 04/M01 A3013 RMK A01 T00441007  RH  070%=      5-min Rain = 0
KWA1 291133Z 24007KT 04/M01 A3013 RMK A01 T00441007  RH  069%=      5-min Rain = 0
KWA1 291134Z 24007KT 05/M01 A3013 RMK A01 T00451006  RH  070%=      5-min Rain = 0
KWA1 291135Z 24008KT 05/M01 A3013 RMK A01 T00461005  RH  069%=      5-min Rain = 0
KWA1 291136Z 24008KT 05/M01 A3013 RMK A01 T00471006  RH  069%=      5-min Rain = 0
KWA1 291137Z 24007KT 05/M01 A3013 RMK A01 T00471006  RH  069%=      5-min Rain = 0
KWA1 291138Z 24007KT 05/M01 A3014 RMK A01 T00471006  RH  069%=      5-min Rain = 0
KWA1 291139Z 24006KT 05/M01 A3014 RMK A01 T00471006  RH  069%=      5-min Rain = 0
KWA1 291140Z 24006KT 05/M01 A3014 RMK A01 T00471006  RH  069%=      5-min Rain = 0
KWA1 291141Z 24005KT 05/M01 A3014 RMK A01 T00471006  RH  069%=      5-min Rain = 0
KWA1 291142Z 23005KT 05/M01 A3014 RMK A01 T00461006  RH  069%=      5-min Rain = 0
KWA1 291143Z 21005KT 05/M01 A3014 RMK A01 T00461007  RH  068%=      5-min Rain = 0
KWA1 291144Z 20006KT 05/M01 A3014 RMK A01 T00461009  RH  068%=      5-min Rain = 0
KWA1 291145Z 20007KT 05/M01 A3014 RMK A01 T00451007  RH  069%=      5-min Rain = 0
KWA1 291146Z 20006KT 05/M00 A3015 RMK A01 T00471004  RH  069%=      5-min Rain = 0
KWA1 291147Z 19006KT 05/M00 A3015 RMK A01 T00481003  RH  069%=      5-min Rain = 0
KWA1 291148Z 19007KT 05/M00 A3015 RMK A01 T00491002  RH  070%=      5-min Rain = 0
KWA1 291149Z 19007KT 05/00 A3015 RMK A01 T004900-0  RH  070%=      5-min Rain = 0
KWA1 291150Z 19008KT 05/00 A3015 RMK A01 T00500001  RH  071%=      5-min Rain = 0
KWA1 291151Z 20008KT 05/00 A3015 RMK A01 T00510001  RH  070%=      5-min Rain = 0
KWA1 291152Z 20008KT 05/00 A3015 RMK A01 T005100-0  RH  069%=      5-min Rain = 0
KWA1 291153Z 20007KT 05/M00 A3015 RMK A01 T00511001  RH  069%=      5-min Rain = 0
KWA1 291154Z 20007KT 05/M00 A3015 RMK A01 T00521001  RH  069%=      5-min Rain = 0
KWA1 291155Z 20007KT 05/M00 A3015 RMK A01 T00521001  RH  069%=      5-min Rain = 0
KWA1 291156Z 19006KT 05/00 A3015 RMK A01 T005300-0  RH  069%=      5-min Rain = 0
KWA1 291157Z 19006KT 05/00 A3016 RMK A01 T005300-0  RH  068%=      5-min Rain = 0
KWA1 291158Z 19007KT 05/00 A3016 RMK A01 T005400-0  RH  068%=      5-min Rain = 0
KWA1 291159Z 20007KT 06/00 A3015 RMK A01 T005500-0  RH  068%=      5-min Rain = 0
KWA1 291200Z 22007KT 06/00 A3015 RMK A01 T00550000  RH  068%=      5-min Rain = 0
KWA1 291201Z 24007KT 06/M00 A3015 RMK A01 T00561001  RH  067%=      5-min Rain = 0
KWA1 291202Z 24007KT 06/M00 A3015 RMK A01 T00561001  RH  067%=      5-min Rain = 0
KWA1 291203Z 24007KT 06/M00 A3015 RMK A01 T00561002  RH  066%=      5-min Rain = 0
KWA1 291204Z 24007KT 06/M00 A3015 RMK A01 T00561003  RH  066%=      5-min Rain = 0
KWA1 291205Z 24007KT 06/M00 A3015 RMK A01 T00571002  RH  066%=      5-min Rain = 0
KWA1 291206Z 24007KT 06/M00 A3015 RMK A01 T00581002  RH  065%=      5-min Rain = 0
KWA1 291207Z 24006KT 06/M00 A3015 RMK A01 T00581002  RH  065%=      5-min Rain = 0
KWA1 291208Z 25006KT 06/M00 A3015 RMK A01 T00581002  RH  065%=      5-min Rain = 0
KWA1 291209Z 26006KT 06/M00 A3015 RMK A01 T00571002  RH  066%=      5-min Rain = 0
KWA1 291210Z 26005KT 06/M00 A3016 RMK A01 T00561002  RH  066%=      5-min Rain = 0
KWA1 291211Z 27004KT 06/M00 A3016 RMK A01 T00561002  RH  066%=      5-min Rain = 0
KWA1 291212Z 27004KT 06/M00 A3016 RMK A01 T00561002  RH  066%=      5-min Rain = 0
KWA1 291213Z 25003KT 06/M00 A3016 RMK A01 T00561002  RH  066%=      5-min Rain = 0
KWA1 291214Z 24004KT 06/M00 A3016 RMK A01 T00561002  RH  066%=      5-min Rain = 0
KWA1 291215Z 23003KT 06/M00 A3016 RMK A01 T00561003  RH  066%=      5-min Rain = 0
KWA1 291216Z 23004KT 06/M00 A3016 RMK A01 T00551004  RH  066%=      5-min Rain = 0
KWA1 291217Z 22003KT 06/M01 A3016 RMK A01 T00551005  RH  066%=      5-min Rain = 0
KWA1 291218Z 21003KT 05/M00 A3016 RMK A01 T00541004  RH  066%=      5-min Rain = 0
KWA1 291219Z 21004KT 05/M00 A3016 RMK A01 T00541003  RH  067%=      5-min Rain = 0
KWA1 291220Z 20005KT 06/M00 A3016 RMK A01 T00551002  RH  067%=      5-min Rain = 0
KWA1 291221Z 19006KT 05/M00 A3016 RMK A01 T00541002  RH  067%=      5-min Rain = 0
KWA1 291222Z 20006KT 05/M00 A3016 RMK A01 T00541002  RH  067%=      5-min Rain = 0
KWA1 291223Z 21006KT 06/00 A3016 RMK A01 T00550000  RH  068%=      5-min Rain = 0
KWA1 291224Z 21005KT 06/00 A3016 RMK A01 T00550000  RH  068%=      5-min Rain = 0
KWA1 291225Z 21005KT 05/00 A3016 RMK A01 T00540000  RH  068%=      5-min Rain = 0
KWA1 291226Z 22004KT 06/00 A3016 RMK A01 T005500-0  RH  068%=      5-min Rain = 0
KWA1 291227Z 23003KT 05/00 A3016 RMK A01 T005400-0  RH  068%=      5-min Rain = 0
KWA1 291228Z 24003KT 05/00 A3016 RMK A01 T005400-0  RH  068%=      5-min Rain = 0
KWA1 291229Z 24003KT 06/00 A3016 RMK A01 T005500-0  RH  068%=      5-min Rain = 0
KWA1 291230Z 25003KT 06/00 A3016 RMK A01 T005500-0  RH  068%=      5-min Rain = 0
KWA1 291231Z 26003KT 06/00 A3016 RMK A01 T005500-0  RH  068%=      5-min Rain = 0
KWA1 291232Z 28003KT 06/00 A3016 RMK A01 T005500-0  RH  068%=      5-min Rain = 0
KWA1 291233Z 28002KT 06/00 A3016 RMK A01 T005500-0  RH  068%=      5-min Rain = 0
KWA1 291234Z 27002KT 06/00 A3016 RMK A01 T00550000  RH  068%=      5-min Rain = 0
KWA1 291235Z 25003KT 06/M00 A3016 RMK A01 T00551001  RH  067%=      5-min Rain = 0
KWA1 291236Z 24003KT 06/M00 A3016 RMK A01 T00551002  RH  067%=      5-min Rain = 0
KWA1 291237Z 24004KT 05/M00 A3017 RMK A01 T00541003  RH  067%=      5-min Rain = 0
KWA1 291238Z 24004KT 05/M00 A3017 RMK A01 T00541003  RH  067%=      5-min Rain = 0
KWA1 291239Z 24004KT 05/M00 A3017 RMK A01 T00541003  RH  067%=      5-min Rain = 0
KWA1 291240Z 24004KT 05/M00 A3017 RMK A01 T00541003  RH  067%=      5-min Rain = 0
KWA1 291241Z 25004KT 05/M00 A3017 RMK A01 T00541002  RH  067%=      5-min Rain = 0
KWA1 291242Z 25003KT 05/M00 A3017 RMK A01 T00531003  RH  067%=      5-min Rain = 0
KWA1 291243Z 26002KT 05/M00 A3017 RMK A01 T00531003  RH  067%=      5-min Rain = 0
KWA1 291244Z 28002KT 05/M00 A3017 RMK A01 T00531002  RH  068%=      5-min Rain = 0
KWA1 291245Z 30003KT 05/M00 A3017 RMK A01 T00531001  RH  068%=      5-min Rain = 0
KWA1 291246Z 30003KT 05/M00 A3017 RMK A01 T00541002  RH  068%=      5-min Rain = 0
KWA1 291247Z 30003KT 05/M00 A3017 RMK A01 T00541001  RH  068%=      5-min Rain = 0
KWA1 291248Z 30003KT 05/00 A3016 RMK A01 T00540000  RH  068%=      5-min Rain = 0
KWA1 291249Z 30003KT 05/00 A3016 RMK A01 T00540001  RH  069%=      5-min Rain = 0
KWA1 291250Z 30002KT 05/00 A3016 RMK A01 T00540001  RH  069%=      5-min Rain = 0
KWA1 291251Z 30002KT 05/00 A3016 RMK A01 T00540002  RH  069%=      5-min Rain = 0
KWA1 291252Z 31002KT 05/00 A3017 RMK A01 T00540002  RH  069%=      5-min Rain = 0
KWA1 291253Z 31002KT 05/00 A3017 RMK A01 T00540001  RH  069%=      5-min Rain = 0
KWA1 291254Z 32003KT 05/00 A3017 RMK A01 T00540002  RH  069%=      5-min Rain = 0
KWA1 291255Z 32003KT 06/00 A3017 RMK A01 T00550001  RH  068%=      5-min Rain = 0
KWA1 291256Z 33003KT 06/00 A3017 RMK A01 T00550001  RH  068%=      5-min Rain = 0
KWA1 291257Z 33003KT 06/00 A3017 RMK A01 T00550001  RH  068%=      5-min Rain = 0
KWA1 291258Z 33003KT 06/00 A3017 RMK A01 T00550001  RH  068%=      5-min Rain = 0
KWA1 291259Z 33003KT 06/00 A3017 RMK A01 T00560001  RH  068%=      5-min Rain = 0
KWA1 291300Z 33002KT 06/00 A3017 RMK A01 T00560000  RH  068%=      5-min Rain = 0
KWA1 291301Z 34002KT 06/00 A3017 RMK A01 T00560001  RH  068%=      5-min Rain = 0
KWA1 291302Z 34002KT 06/00 A3017 RMK A01 T00560001  RH  067%=      5-min Rain = 0
KWA1 291303Z 34001KT 06/00 A3017 RMK A01 T00570002  RH  067%=      5-min Rain = 0
KWA1 291304Z 34001KT 06/00 A3017 RMK A01 T00570003  RH  068%=      5-min Rain = 0
KWA1 291305Z 34002KT 06/00 A3017 RMK A01 T00580003  RH  068%=      5-min Rain = 0
KWA1 291306Z 33002KT 06/00 A3017 RMK A01 T00580003  RH  068%=      5-min Rain = 0
KWA1 291307Z 33003KT 06/00 A3017 RMK A01 T00580003  RH  068%=      5-min Rain = 0
KWA1 291308Z 34003KT 06/00 A3017 RMK A01 T00580004  RH  068%=      5-min Rain = 0
KWA1 291309Z 34004KT 06/01 A3017 RMK A01 T00590005  RH  068%=      5-min Rain = 0
KWA1 291310Z 34005KT 06/00 A3018 RMK A01 T00590004  RH  068%=      5-min Rain = 0
KWA1 291311Z 34005KT 06/00 A3018 RMK A01 T00590003  RH  067%=      5-min Rain = 0
KWA1 291312Z 35004KT 06/00 A3018 RMK A01 T00600003  RH  067%=      5-min Rain = 0
KWA1 291313Z 34003KT 06/00 A3018 RMK A01 T00600003  RH  067%=      5-min Rain = 0
KWA1 291314Z 34003KT 06/00 A3018 RMK A01 T00610004  RH  067%=      5-min Rain = 0
KWA1 291315Z 34003KT 06/01 A3018 RMK A01 T00620005  RH  067%=      5-min Rain = 0
KWA1 291316Z 34003KT 06/01 A3018 RMK A01 T00620006  RH  067%=      5-min Rain = 0
KWA1 291317Z 34003KT 06/01 A3018 RMK A01 T00620005  RH  067%=      5-min Rain = 0
KWA1 291318Z 34003KT 06/01 A3018 RMK A01 T00620005  RH  067%=      5-min Rain = 0
KWA1 291319Z 34003KT 06/01 A3018 RMK A01 T00620006  RH  067%=      5-min Rain = 0
KWA1 291320Z 33003KT 06/01 A3018 RMK A01 T00630006  RH  067%=      5-min Rain = 0
KWA1 291321Z 33003KT 06/01 A3018 RMK A01 T00630007  RH  067%=      5-min Rain = 0
KWA1 291322Z 33003KT 06/01 A3019 RMK A01 T00630007  RH  067%=      5-min Rain = 0
KWA1 291323Z 33003KT 06/01 A3019 RMK A01 T00630007  RH  067%=      5-min Rain = 0
KWA1 291324Z 32003KT 06/01 A3019 RMK A01 T00630007  RH  067%=      5-min Rain = 0
KWA1 291325Z 32003KT 06/01 A3019 RMK A01 T00630006  RH  067%=      5-min Rain = 0
KWA1 291326Z 33003KT 06/01 A3019 RMK A01 T00630005  RH  066%=      5-min Rain = 0
KWA1 291327Z 33003KT 06/00 A3019 RMK A01 T00630004  RH  066%=      5-min Rain = 0
KWA1 291328Z 33003KT 06/00 A3019 RMK A01 T00630003  RH  065%=      5-min Rain = 0
KWA1 291329Z 31002KT 06/00 A3019 RMK A01 T00630003  RH  065%=      5-min Rain = 0
KWA1 291330Z 30002KT 06/00 A3019 RMK A01 T00640004  RH  066%=      5-min Rain = 0
KWA1 291331Z 30002KT 06/01 A3019 RMK A01 T00640005  RH  066%=      5-min Rain = 0
KWA1 291332Z 30002KT 07/01 A3019 RMK A01 T00660007  RH  066%=      5-min Rain = 0
KWA1 291333Z 32003KT 07/01 A3019 RMK A01 T00670007  RH  066%=      5-min Rain = 0
KWA1 291334Z 32003KT 07/01 A3019 RMK A01 T00680007  RH  065%=      5-min Rain = 0
KWA1 291335Z 32003KT 07/01 A3019 RMK A01 T00690008  RH  065%=      5-min Rain = 0
KWA1 291336Z 32003KT 07/01 A3019 RMK A01 T00710010  RH  065%=      5-min Rain = 0
KWA1 291337Z 31002KT 07/01 A3019 RMK A01 T00720012  RH  065%=      5-min Rain = 0
KWA1 291338Z 32002KT 07/01 A3019 RMK A01 T00740013  RH  065%=      5-min Rain = 0
KWA1 291339Z 33003KT 08/01 A3019 RMK A01 T00760011  RH  064%=      5-min Rain = 0
KWA1 291340Z 34003KT 08/01 A302 RMK A01 T00780013  RH  063%=      5-min Rain = 0
KWA1 291341Z 34003KT 08/01 A302 RMK A01 T00800012  RH  062%=      5-min Rain = 0
KWA1 291342Z 34002KT 08/01 A302 RMK A01 T00830008  RH  059%=      5-min Rain = 0
KWA1 291343Z 33002KT 08/01 A3019 RMK A01 T00840009  RH  059%=      5-min Rain = 0
KWA1 291344Z 33002KT 09/01 A3019 RMK A01 T00850008  RH  058%=      5-min Rain = 0
KWA1 291345Z 33002KT 09/01 A3019 RMK A01 T00870007  RH  058%=      5-min Rain = 0
KWA1 291346Z 32002KT 09/01 A3019 RMK A01 T00870006  RH  056%=      5-min Rain = 0
KWA1 291347Z 32001KT 09/01 A3019 RMK A01 T00880008  RH  057%=      5-min Rain = 0
KWA1 291348Z 32001KT 09/01 A3019 RMK A01 T00880010  RH  058%=      5-min Rain = 0
KWA1 291349Z 31001KT 09/01 A3019 RMK A01 T00890011  RH  058%=      5-min Rain = 0
KWA1 291350Z 31002KT 09/01 A3019 RMK A01 T00910012  RH  058%=      5-min Rain = 0
KWA1 291351Z 30001KT 09/01 A3019 RMK A01 T00910012  RH  058%=      5-min Rain = 0
KWA1 291352Z 30001KT 09/01 A3019 RMK A01 T00930014  RH  058%=      5-min Rain = 0
KWA1 291353Z 31002KT 09/01 A3019 RMK A01 T00940013  RH  057%=      5-min Rain = 0
KWA1 291354Z 32002KT 09/01 A302 RMK A01 T00940013  RH  057%=      5-min Rain = 0
KWA1 291355Z 32002KT 09/02 A302 RMK A01 T00940015  RH  058%=      5-min Rain = 0
KWA1 291356Z 31002KT 09/02 A302 RMK A01 T00940016  RH  058%=      5-min Rain = 0
KWA1 291357Z 30002KT 09/01 A302 RMK A01 T00940011  RH  056%=      5-min Rain = 0
KWA1 291358Z 30002KT 10/02 A302 RMK A01 T00960015  RH  057%=      5-min Rain = 0
KWA1 291359Z 31002KT 10/01 A302 RMK A01 T00970013  RH  055%=      5-min Rain = 0
KWA1 291400Z 32002KT 10/01 A302 RMK A01 T00990014  RH  056%=      5-min Rain = 0
KWA1 291401Z 32002KT 10/01 A302 RMK A01 T01000014  RH  055%=      5-min Rain = 0
KWA1 291402Z 33002KT 10/02 A302 RMK A01 T01000015  RH  056%=      5-min Rain = 0
KWA1 291403Z 32002KT 10/01 A302 RMK A01 T01000014  RH  055%=      5-min Rain = 0
KWA1 291404Z 34001KT 10/01 A302 RMK A01 T01010014  RH  055%=      5-min Rain = 0
KWA1 291405Z 35002KT 10/01 A302 RMK A01 T01010014  RH  055%=      5-min Rain = 0
KWA1 291406Z 35003KT 10/01 A302 RMK A01 T01020011  RH  053%=      5-min Rain = 0
KWA1 291407Z 35004KT 10/00 A302 RMK A01 T01020002  RH  050%=      5-min Rain = 0
KWA1 291408Z 36004KT 10/00 A302 RMK A01 T010200-0  RH  049%=      5-min Rain = 0
KWA1 291409Z 00004KT 10/00 A302 RMK A01 T01030003  RH  050%=      5-min Rain = 0
KWA1 291410Z 01004KT 10/00 A302 RMK A01 T01030002  RH  050%=      5-min Rain = 0
KWA1 291411Z 00004KT 10/01 A302 RMK A01 T01030006  RH  051%=      5-min Rain = 0
KWA1 291412Z 01004KT 10/00 A302 RMK A01 T01030004  RH  050%=      5-min Rain = 0
KWA1 291413Z 00004KT 10/01 A302 RMK A01 T01040007  RH  051%=      5-min Rain = 0
KWA1 291414Z 00004KT 10/01 A302 RMK A01 T01030010  RH  052%=      5-min Rain = 0
KWA1 291415Z 00004KT 10/01 A302 RMK A01 T01030009  RH  052%=      5-min Rain = 0
KWA1 291416Z 36004KT 10/01 A302 RMK A01 T01040006  RH  051%=      5-min Rain = 0
KWA1 291417Z 36004KT 10/01 A302 RMK A01 T01040008  RH  052%=      5-min Rain = 0
KWA1 291418Z 00004KT 10/01 A3019 RMK A01 T01040010  RH  052%=      5-min Rain = 0
KWA1 291419Z 00004KT 10/01 A3019 RMK A01 T01040013  RH  054%=      5-min Rain = 0
KWA1 291420Z 00004KT 10/01 A3019 RMK A01 T01030014  RH  054%=      5-min Rain = 0
KWA1 291421Z 00004KT 10/02 A3019 RMK A01 T01040015  RH  054%=      5-min Rain = 0
KWA1 291422Z 00004KT 10/01 A3019 RMK A01 T01040013  RH  053%=      5-min Rain = 0
KWA1 291423Z 36004KT 10/01 A3019 RMK A01 T01040012  RH  053%=      5-min Rain = 0
KWA1 291424Z 36004KT 11/01 A3019 RMK A01 T01050014  RH  053%=      5-min Rain = 0
KWA1 291425Z 36005KT 11/01 A3019 RMK A01 T01060011  RH  052%=      5-min Rain = 0
KWA1 291426Z 35005KT 11/01 A302 RMK A01 T01060011  RH  052%=      5-min Rain = 0
KWA1 291427Z 35004KT 11/01 A302 RMK A01 T01070012  RH  052%=      5-min Rain = 0
KWA1 291428Z 36004KT 11/01 A302 RMK A01 T01080012  RH  052%=      5-min Rain = 0
KWA1 291429Z 00005KT 11/01 A302 RMK A01 T01090009  RH  050%=      5-min Rain = 0
KWA1 291430Z 00004KT 11/01 A302 RMK A01 T01100006  RH  049%=      5-min Rain = 0
KWA1 291431Z 00004KT 11/01 A302 RMK A01 T01100005  RH  048%=      5-min Rain = 0
KWA1 291432Z 01004KT 11/01 A302 RMK A01 T01110007  RH  049%=      5-min Rain = 0
KWA1 291433Z 01004KT 11/01 A302 RMK A01 T01110005  RH  048%=      5-min Rain = 0
KWA1 291434Z 01004KT 11/01 A302 RMK A01 T01100010  RH  050%=      5-min Rain = 0
KWA1 291435Z 36003KT 11/01 A302 RMK A01 T01100013  RH  051%=      5-min Rain = 0
KWA1 291436Z 35003KT 11/02 A302 RMK A01 T01110015  RH  052%=      5-min Rain = 0
KWA1 291437Z 36004KT 11/01 A302 RMK A01 T01110012  RH  050%=      5-min Rain = 0
KWA1 291438Z 35003KT 11/01 A302 RMK A01 T01120013  RH  050%=      5-min Rain = 0
KWA1 291439Z 36003KT 11/01 A302 RMK A01 T01120012  RH  050%=      5-min Rain = 0
KWA1 291440Z 01002KT 11/02 A302 RMK A01 T01130015  RH  051%=      5-min Rain = 0
KWA1 291441Z 35002KT 11/01 A302 RMK A01 T01140009  RH  048%=      5-min Rain = 0
KWA1 291442Z 01002KT 11/01 A302 RMK A01 T01140011  RH  049%=      5-min Rain = 0
KWA1 291443Z 00001KT 12/01 A302 RMK A01 T01150011  RH  049%=      5-min Rain = 0
KWA1 291444Z 01002KT 12/01 A302 RMK A01 T01150012  RH  049%=      5-min Rain = 0
KWA1 291445Z 01002KT 12/01 A302 RMK A01 T01150011  RH  049%=      5-min Rain = 0
KWA1 291446Z 00002KT 12/01 A302 RMK A01 T01150012  RH  049%=      5-min Rain = 0
KWA1 291447Z 36002KT 12/01 A302 RMK A01 T01150012  RH  049%=      5-min Rain = 0
KWA1 291448Z 01002KT 12/01 A302 RMK A01 T01150013  RH  049%=      5-min Rain = 0
KWA1 291449Z 03001KT 12/02 A302 RMK A01 T01170015  RH  049%=      5-min Rain = 0
KWA1 291450Z 03002KT 12/02 A302 RMK A01 T01190015  RH  049%=      5-min Rain = 0
KWA1 291451Z 03002KT 12/01 A302 RMK A01 T01210012  RH  047%=      5-min Rain = 0
KWA1 291452Z 05002KT 12/01 A302 RMK A01 T01210010  RH  047%=      5-min Rain = 0
KWA1 291453Z 05002KT 12/01 A302 RMK A01 T01210008  RH  046%=      5-min Rain = 0
KWA1 291454Z 05002KT 12/01 A302 RMK A01 T01210009  RH  046%=      5-min Rain = 0
KWA1 291455Z 04002KT 12/01 A302 RMK A01 T01210008  RH  046%=      5-min Rain = 0
KWA1 291456Z 05002KT 12/01 A302 RMK A01 T01210007  RH  046%=      5-min Rain = 0
KWA1 291457Z 05003KT 12/01 A302 RMK A01 T01210008  RH  046%=      5-min Rain = 0
KWA1 291458Z 03004KT 12/01 A302 RMK A01 T01210013  RH  047%=      5-min Rain = 0
KWA1 291459Z 03003KT 12/02 A302 RMK A01 T01210015  RH  048%=      5-min Rain = 0
KWA1 291500Z 04004KT 12/02 A302 RMK A01 T01210015  RH  048%=      5-min Rain = 0
KWA1 291501Z 04004KT 12/01 A302 RMK A01 T01220013  RH  047%=      5-min Rain = 0
KWA1 291502Z 04004KT 12/01 A302 RMK A01 T01220010  RH  046%=      5-min Rain = 0
KWA1 291503Z 04003KT 12/01 A302 RMK A01 T01230007  RH  045%=      5-min Rain = 0
KWA1 291504Z 04003KT 12/01 A302 RMK A01 T01240007  RH  045%=      5-min Rain = 0
KWA1 291505Z 02003KT 12/01 A302 RMK A01 T01240012  RH  046%=      5-min Rain = 0
KWA1 291506Z 04003KT 13/01 A302 RMK A01 T01260014  RH  046%=      5-min Rain = 0
KWA1 291507Z 05004KT 13/01 A302 RMK A01 T01270009  RH  044%=      5-min Rain = 0
KWA1 291508Z 03003KT 13/01 A302 RMK A01 T01280010  RH  044%=      5-min Rain = 0
KWA1 291509Z 02002KT 13/01 A3021 RMK A01 T01300007  RH  043%=      5-min Rain = 0
KWA1 291510Z 05002KT 13/01 A3021 RMK A01 T01300010  RH  044%=      5-min Rain = 0
KWA1 291511Z 04003KT 13/01 A3021 RMK A01 T01300007  RH  043%=      5-min Rain = 0
KWA1 291512Z 05003KT 13/00 A3021 RMK A01 T01310003  RH  041%=      5-min Rain = 0
KWA1 291513Z 05002KT 13/M00 A3021 RMK A01 T01311001  RH  040%=      5-min Rain = 0
KWA1 291514Z 02001KT 13/01 A3021 RMK A01 T01310010  RH  043%=      5-min Rain = 0
KWA1 291515Z 02003KT 13/01 A3021 RMK A01 T01330013  RH  044%=      5-min Rain = 0
KWA1 291516Z 03004KT 13/02 A3021 RMK A01 T01330015  RH  045%=      5-min Rain = 0
KWA1 291517Z 03003KT 13/02 A3021 RMK A01 T01330016  RH  045%=      5-min Rain = 0
KWA1 291518Z 03002KT 13/02 A302 RMK A01 T01340019  RH  045%=      5-min Rain = 0
KWA1 291519Z 04002KT 14/02 A302 RMK A01 T01360017  RH  044%=      5-min Rain = 0
KWA1 291520Z 03003KT 14/01 A302 RMK A01 T01360010  RH  042%=      5-min Rain = 0
KWA1 291521Z 04003KT 14/01 A302 RMK A01 T01350010  RH  042%=      5-min Rain = 0
KWA1 291522Z 04003KT 13/01 A302 RMK A01 T01340010  RH  043%=      5-min Rain = 0
KWA1 291523Z 05003KT 13/01 A302 RMK A01 T01340005  RH  041%=      5-min Rain = 0
KWA1 291524Z 05003KT 13/01 A302 RMK A01 T01340006  RH  041%=      5-min Rain = 0
KWA1 291525Z 04003KT 14/00 A3021 RMK A01 T01350004  RH  041%=      5-min Rain = 0
KWA1 291526Z 03003KT 14/00 A3021 RMK A01 T01350003  RH  040%=      5-min Rain = 0
KWA1 291527Z 04003KT 13/01 A3021 RMK A01 T01340007  RH  042%=      5-min Rain = 0
KWA1 291528Z 04004KT 14/01 A3021 RMK A01 T01350009  RH  042%=      5-min Rain = 0
KWA1 291529Z 04003KT 14/01 A3021 RMK A01 T01360007  RH  041%=      5-min Rain = 0
KWA1 291530Z 03003KT 14/01 A3021 RMK A01 T01350007  RH  041%=      5-min Rain = 0
KWA1 291531Z 03003KT 14/00 A3021 RMK A01 T01350004  RH  041%=      5-min Rain = 0
KWA1 291532Z 02003KT 14/00 A3021 RMK A01 T01350002  RH  040%=      5-min Rain = 0
KWA1 291533Z 02003KT 14/00 A3021 RMK A01 T01350003  RH  040%=      5-min Rain = 0
KWA1 291534Z 01003KT 14/01 A3021 RMK A01 T01350005  RH  041%=      5-min Rain = 0
KWA1 291535Z 01003KT 14/00 A3021 RMK A01 T01360004  RH  041%=      5-min Rain = 0
KWA1 291536Z 03004KT 14/01 A3021 RMK A01 T01370005  RH  040%=      5-min Rain = 0
KWA1 291537Z 03003KT 14/00 A3021 RMK A01 T01380003  RH  040%=      5-min Rain = 0
KWA1 291538Z 04004KT 14/00 A3021 RMK A01 T01380002  RH  040%=      5-min Rain = 0
KWA1 291539Z 04004KT 14/00 A3021 RMK A01 T01380004  RH  040%=      5-min Rain = 0
KWA1 291540Z 03004KT 14/01 A3021 RMK A01 T01390007  RH  040%=      5-min Rain = 0
KWA1 291541Z 03004KT 14/01 A3021 RMK A01 T01400011  RH  041%=      5-min Rain = 0
KWA1 291542Z 03002KT 14/01 A3021 RMK A01 T01400005  RH  040%=      5-min Rain = 0
KWA1 291543Z 03003KT 14/01 A3021 RMK A01 T01410006  RH  040%=      5-min Rain = 0
KWA1 291544Z 04003KT 14/01 A3021 RMK A01 T01420010  RH  041%=      5-min Rain = 0
KWA1 291545Z 05002KT 14/01 A3021 RMK A01 T01430012  RH  041%=      5-min Rain = 0
KWA1 291546Z 05002KT 14/01 A3021 RMK A01 T01430010  RH  040%=      5-min Rain = 0
KWA1 291547Z 05002KT 14/01 A3021 RMK A01 T01440014  RH  041%=      5-min Rain = 0
KWA1 291548Z 04002KT 15/02 A302 RMK A01 T01450017  RH  042%=      5-min Rain = 0
KWA1 291549Z 07002KT 15/02 A302 RMK A01 T01460019  RH  042%=      5-min Rain = 0
KWA1 291550Z 05004KT 15/02 A302 RMK A01 T01480019  RH  042%=      5-min Rain = 0
KWA1 291551Z 05004KT 15/01 A302 RMK A01 T01490014  RH  040%=      5-min Rain = 0
KWA1 291552Z 05003KT 15/01 A302 RMK A01 T01490008  RH  038%=      5-min Rain = 0
KWA1 291553Z 07003KT 15/01 A302 RMK A01 T01480005  RH  038%=      5-min Rain = 0
KWA1 291554Z 07003KT 15/01 A302 RMK A01 T01480007  RH  038%=      5-min Rain = 0
KWA1 291555Z 08003KT 15/01 A302 RMK A01 T01480012  RH  040%=      5-min Rain = 0
KWA1 291556Z 07003KT 15/02 A302 RMK A01 T01480015  RH  041%=      5-min Rain = 0
KWA1 291557Z 04004KT 15/02 A302 RMK A01 T01480016  RH  041%=      5-min Rain = 0
KWA1 291558Z 03003KT 15/01 A302 RMK A01 T01480014  RH  040%=      5-min Rain = 0
KWA1 291559Z 05002KT 15/01 A302 RMK A01 T01480013  RH  040%=      5-min Rain = 0
KWA1 291600Z 04001KT 15/01 A302 RMK A01 T01480013  RH  040%=      5-min Rain = 0
KWA1 291601Z 05004KT 15/01 A302 RMK A01 T01480013  RH  040%=      5-min Rain = 0
KWA1 291602Z 08003KT 15/01 A3021 RMK A01 T01490011  RH  039%=      5-min Rain = 0
KWA1 291603Z 07002KT 15/01 A3021 RMK A01 T01500010  RH  039%=      5-min Rain = 0
KWA1 291604Z 04002KT 15/01 A3021 RMK A01 T01510013  RH  039%=      5-min Rain = 0
KWA1 291605Z 03003KT 15/01 A3021 RMK A01 T01520011  RH  038%=      5-min Rain = 0
KWA1 291606Z 04002KT 15/01 A3021 RMK A01 T01520008  RH  038%=      5-min Rain = 0
KWA1 291607Z 03003KT 15/01 A3021 RMK A01 T01510009  RH  038%=      5-min Rain = 0
KWA1 291608Z 03002KT 15/01 A3021 RMK A01 T01510011  RH  039%=      5-min Rain = 0
KWA1 291609Z 09003KT 15/01 A3021 RMK A01 T01530013  RH  039%=      5-min Rain = 0
KWA1 291610Z 09002KT 15/01 A3021 RMK A01 T01540009  RH  037%=      5-min Rain = 0
KWA1 291611Z 06001KT 15/01 A302 RMK A01 T01540007  RH  037%=      5-min Rain = 0
KWA1 291612Z 06001KT 15/01 A302 RMK A01 T01530008  RH  037%=      5-min Rain = 0
KWA1 291613Z 06002KT 15/01 A302 RMK A01 T01540013  RH  038%=      5-min Rain = 0
KWA1 291614Z 04003KT 15/01 A302 RMK A01 T01540010  RH  038%=      5-min Rain = 0
KWA1 291615Z 06005KT 16/01 A302 RMK A01 T01560012  RH  038%=      5-min Rain = 0
KWA1 291616Z 08004KT 16/01 A302 RMK A01 T01560007  RH  036%=      5-min Rain = 0
KWA1 291617Z 07004KT 16/01 A302 RMK A01 T01570010  RH  037%=      5-min Rain = 0
KWA1 291618Z 06004KT 16/01 A3021 RMK A01 T01570011  RH  037%=      5-min Rain = 0
KWA1 291619Z 06003KT 16/02 A3021 RMK A01 T01570015  RH  038%=      5-min Rain = 0
KWA1 291620Z 07003KT 16/01 A3021 RMK A01 T01570014  RH  038%=      5-min Rain = 0
KWA1 291621Z 08002KT 16/02 A3021 RMK A01 T01570015  RH  038%=      5-min Rain = 0
KWA1 291622Z 07002KT 16/02 A3021 RMK A01 T01570015  RH  038%=      5-min Rain = 0
KWA1 291623Z 04003KT 16/02 A3021 RMK A01 T01590019  RH  039%=      5-min Rain = 0
KWA1 291624Z 06004KT 16/02 A3021 RMK A01 T01600019  RH  039%=      5-min Rain = 0
KWA1 291625Z 05003KT 16/02 A3021 RMK A01 T01600016  RH  038%=      5-min Rain = 0
KWA1 291626Z 03003KT 16/01 A3021 RMK A01 T01590014  RH  038%=      5-min Rain = 0
KWA1 291627Z 03002KT 16/02 A3021 RMK A01 T01580015  RH  038%=      5-min Rain = 0
KWA1 291628Z 03003KT 16/02 A3021 RMK A01 T01580015  RH  038%=      5-min Rain = 0
KWA1 291629Z 03004KT 16/02 A3021 RMK A01 T01590016  RH  038%=      5-min Rain = 0
KWA1 291630Z 05003KT 16/02 A3021 RMK A01 T01590021  RH  039%=      5-min Rain = 0
KWA1 291631Z 04004KT 16/02 A3021 RMK A01 T01610023  RH  039%=      5-min Rain = 0
KWA1 291632Z 04004KT 16/02 A302 RMK A01 T01620019  RH  038%=      5-min Rain = 0
KWA1 291633Z 04005KT 16/02 A302 RMK A01 T01610021  RH  039%=      5-min Rain = 0
KWA1 291634Z 03005KT 16/02 A302 RMK A01 T01610022  RH  039%=      5-min Rain = 0
KWA1 291635Z 04004KT 16/02 A302 RMK A01 T01620022  RH  039%=      5-min Rain = 0
KWA1 291636Z 04005KT 16/02 A3021 RMK A01 T01640022  RH  038%=      5-min Rain = 0
KWA1 291637Z 04005KT 17/02 A3021 RMK A01 T01660021  RH  038%=      5-min Rain = 0
KWA1 291638Z 05005KT 17/02 A3021 RMK A01 T01660021  RH  038%=      5-min Rain = 0
KWA1 291639Z 04004KT 17/02 A3021 RMK A01 T01650021  RH  038%=      5-min Rain = 0
KWA1 291640Z 04004KT 17/03 A302 RMK A01 T01650026  RH  039%=      5-min Rain = 0
KWA1 291641Z 04005KT 17/03 A302 RMK A01 T01670025  RH  039%=      5-min Rain = 0
KWA1 291642Z 04006KT 17/02 A302 RMK A01 T01680024  RH  038%=      5-min Rain = 0
KWA1 291643Z 06004KT 17/02 A302 RMK A01 T01670024  RH  038%=      5-min Rain = 0
KWA1 291644Z 06006KT 17/02 A302 RMK A01 T01660024  RH  038%=      5-min Rain = 0
KWA1 291645Z 05005KT 17/02 A302 RMK A01 T01660020  RH  037%=      5-min Rain = 0
KWA1 291646Z 04005KT 17/02 A302 RMK A01 T01670021  RH  037%=      5-min Rain = 0
KWA1 291647Z 05005KT 17/02 A302 RMK A01 T01680022  RH  037%=      5-min Rain = 0
KWA1 291648Z 04006KT 17/02 A3021 RMK A01 T01700020  RH  036%=      5-min Rain = 0
KWA1 291649Z 03005KT 17/02 A3021 RMK A01 T01700021  RH  037%=      5-min Rain = 0
KWA1 291650Z 03005KT 17/02 A3021 RMK A01 T01690017  RH  036%=      5-min Rain = 0
KWA1 291651Z 03006KT 17/03 A3021 RMK A01 T01710025  RH  038%=      5-min Rain = 0
KWA1 291652Z 03005KT 17/02 A302 RMK A01 T01720020  RH  036%=      5-min Rain = 0
KWA1 291653Z 05007KT 17/03 A302 RMK A01 T01720025  RH  037%=      5-min Rain = 0
KWA1 291654Z 03006KT 18/03 A302 RMK A01 T01750025  RH  037%=      5-min Rain = 0
KWA1 291655Z 03006KT 18/03 A302 RMK A01 T01770028  RH  037%=      5-min Rain = 0
KWA1 291656Z 04006KT 18/02 A302 RMK A01 T01770022  RH  036%=      5-min Rain = 0
KWA1 291657Z 04006KT 18/02 A302 RMK A01 T01760020  RH  035%=      5-min Rain = 0
KWA1 291658Z 05004KT 18/02 A302 RMK A01 T01750015  RH  034%=      5-min Rain = 0
KWA1 291659Z 04004KT 18/02 A302 RMK A01 T01750016  RH  034%=      5-min Rain = 0
KWA1 291700Z 05004KT 18/01 A302 RMK A01 T01750014  RH  034%=      5-min Rain = 0
KWA1 291701Z 07005KT 18/01 A302 RMK A01 T01760011  RH  033%=      5-min Rain = 0
KWA1 291702Z 05005KT 18/01 A302 RMK A01 T01770013  RH  033%=      5-min Rain = 0
KWA1 291703Z 05006KT 18/02 A302 RMK A01 T01760020  RH  035%=      5-min Rain = 0
KWA1 291704Z 07005KT 18/03 A302 RMK A01 T01770025  RH  036%=      5-min Rain = 0
KWA1 291705Z 05006KT 18/02 A302 RMK A01 T01790024  RH  036%=      5-min Rain = 0
KWA1 291706Z 06006KT 18/02 A302 RMK A01 T01790024  RH  036%=      5-min Rain = 0
KWA1 291707Z 07004KT 18/02 A302 RMK A01 T01770023  RH  036%=      5-min Rain = 0
KWA1 291708Z 07005KT 18/02 A302 RMK A01 T01780017  RH  034%=      5-min Rain = 0
KWA1 291709Z 07006KT 18/02 A302 RMK A01 T01790016  RH  033%=      5-min Rain = 0
KWA1 291710Z 07004KT 18/01 A302 RMK A01 T01800014  RH  033%=      5-min Rain = 0
KWA1 291711Z 07007KT 18/01 A302 RMK A01 T01800013  RH  032%=      5-min Rain = 0
KWA1 291712Z 08007KT 18/01 A302 RMK A01 T01800013  RH  033%=      5-min Rain = 0
KWA1 291713Z 08005KT 18/01 A302 RMK A01 T01810011  RH  032%=      5-min Rain = 0
KWA1 291714Z 08007KT 18/02 A302 RMK A01 T01810017  RH  033%=      5-min Rain = 0
KWA1 291715Z 09005KT 18/02 A302 RMK A01 T01810018  RH  034%=      5-min Rain = 0
KWA1 291716Z 06003KT 18/02 A302 RMK A01 T01800020  RH  034%=      5-min Rain = 0
KWA1 291717Z 05006KT 18/02 A302 RMK A01 T01800021  RH  034%=      5-min Rain = 0
KWA1 291718Z 05007KT 18/02 A302 RMK A01 T01820017  RH  033%=      5-min Rain = 0
KWA1 291719Z 06006KT 18/02 A302 RMK A01 T01830016  RH  033%=      5-min Rain = 0
KWA1 291720Z 06005KT 18/02 A302 RMK A01 T01820017  RH  033%=      5-min Rain = 0
KWA1 291721Z 05007KT 18/02 A302 RMK A01 T01820017  RH  033%=      5-min Rain = 0
KWA1 291722Z 06006KT 18/02 A302 RMK A01 T01840016  RH  032%=      5-min Rain = 0
KWA1 291723Z 04007KT 18/02 A302 RMK A01 T01840015  RH  032%=      5-min Rain = 0
KWA1 291724Z 05007KT 19/02 A3019 RMK A01 T01850020  RH  033%=      5-min Rain = 0
KWA1 291725Z 05007KT 18/02 A3019 RMK A01 T01840024  RH  034%=      5-min Rain = 0
KWA1 291726Z 06006KT 19/02 A3019 RMK A01 T01850020  RH  033%=      5-min Rain = 0
KWA1 291727Z 08006KT 19/02 A3019 RMK A01 T01850019  RH  033%=      5-min Rain = 0
KWA1 291728Z 07007KT 19/01 A3019 RMK A01 T01870014  RH  031%=      5-min Rain = 0
KWA1 291729Z 08007KT 19/01 A3019 RMK A01 T01870009  RH  030%=      5-min Rain = 0
KWA1 291730Z 09006KT 18/01 A3019 RMK A01 T01840009  RH  031%=      5-min Rain = 0
KWA1 291731Z 09007KT 19/01 A3019 RMK A01 T01860012  RH  031%=      5-min Rain = 0
KWA1 291732Z 08006KT 19/02 A3019 RMK A01 T01870015  RH  032%=      5-min Rain = 0
KWA1 291733Z 07006KT 19/02 A3019 RMK A01 T01890019  RH  032%=      5-min Rain = 0
KWA1 291734Z 06005KT 19/02 A3019 RMK A01 T01890017  RH  032%=      5-min Rain = 0
KWA1 291735Z 06006KT 19/02 A3019 RMK A01 T01880016  RH  032%=      5-min Rain = 0
KWA1 291736Z 06006KT 19/02 A3019 RMK A01 T01880019  RH  032%=      5-min Rain = 0
KWA1 291737Z 08007KT 19/02 A3019 RMK A01 T01900018  RH  032%=      5-min Rain = 0
KWA1 291738Z 08007KT 19/01 A3019 RMK A01 T01920012  RH  030%=      5-min Rain = 0
KWA1 291739Z 08006KT 19/01 A3019 RMK A01 T01930011  RH  030%=      5-min Rain = 0
KWA1 291740Z 08005KT 19/01 A3019 RMK A01 T01930008  RH  029%=      5-min Rain = 0
KWA1 291741Z 10005KT 19/02 A3019 RMK A01 T01920018  RH  031%=      5-min Rain = 0
KWA1 291742Z 08008KT 19/02 A3019 RMK A01 T01940016  RH  030%=      5-min Rain = 0
KWA1 291743Z 08007KT 20/01 A3019 RMK A01 T01950012  RH  029%=      5-min Rain = 0
KWA1 291744Z 07006KT 20/01 A3019 RMK A01 T01960014  RH  030%=      5-min Rain = 0
KWA1 291745Z 07007KT 20/02 A3019 RMK A01 T01960017  RH  030%=      5-min Rain = 0
KWA1 291746Z 07008KT 20/01 A3019 RMK A01 T01960011  RH  029%=      5-min Rain = 0
KWA1 291747Z 08008KT 20/01 A3018 RMK A01 T01950012  RH  029%=      5-min Rain = 0
KWA1 291748Z 08007KT 20/01 A3018 RMK A01 T01960010  RH  029%=      5-min Rain = 0
KWA1 291749Z 09008KT 20/01 A3018 RMK A01 T01970014  RH  029%=      5-min Rain = 0
KWA1 291750Z 09008KT 20/01 A3018 RMK A01 T01980014  RH  029%=      5-min Rain = 0
KWA1 291751Z 09007KT 20/01 A3018 RMK A01 T01980009  RH  028%=      5-min Rain = 0
KWA1 291752Z 09008KT 20/01 A3018 RMK A01 T01970011  RH  029%=      5-min Rain = 0
KWA1 291753Z 10006KT 20/01 A3018 RMK A01 T01960012  RH  029%=      5-min Rain = 0
KWA1 291754Z 10007KT 20/02 A3018 RMK A01 T01960018  RH  030%=      5-min Rain = 0
KWA1 291755Z 08008KT 20/01 A3018 RMK A01 T01970011  RH  029%=      5-min Rain = 0
KWA1 291756Z 09006KT 20/01 A3018 RMK A01 T01970008  RH  028%=      5-min Rain = 0
KWA1 291757Z 08005KT 20/00 A3018 RMK A01 T01960004  RH  028%=      5-min Rain = 0
KWA1 291758Z 07007KT 20/01 A3018 RMK A01 T01960009  RH  029%=      5-min Rain = 0
KWA1 291759Z 09008KT 20/01 A3018 RMK A01 T01970009  RH  028%=      5-min Rain = 0
KWA1 291800Z 10007KT 20/01 A3018 RMK A01 T01980010  RH  028%=      5-min Rain = 0
KWA1 291801Z 08006KT 20/01 A3018 RMK A01 T01960008  RH  028%=      5-min Rain = 0
KWA1 291802Z 08008KT 20/01 A3018 RMK A01 T01960014  RH  030%=      5-min Rain = 0
KWA1 291803Z 09006KT 20/01 A3018 RMK A01 T01980013  RH  029%=      5-min Rain = 0
KWA1 291804Z 09004KT 20/01 A3018 RMK A01 T01980013  RH  029%=      5-min Rain = 0
KWA1 291805Z 09006KT 20/01 A3018 RMK A01 T01980012  RH  029%=      5-min Rain = 0
KWA1 291806Z 09005KT 20/01 A3018 RMK A01 T01980008  RH  028%=      5-min Rain = 0
KWA1 291807Z 07006KT 20/02 A3018 RMK A01 T01980015  RH  029%=      5-min Rain = 0
KWA1 291808Z 07007KT 20/02 A3018 RMK A01 T02010017  RH  029%=      5-min Rain = 0
KWA1 291809Z 07006KT 20/01 A3018 RMK A01 T02020011  RH  028%=      5-min Rain = 0
KWA1 291810Z 08006KT 20/01 A3018 RMK A01 T02000010  RH  028%=      5-min Rain = 0
KWA1 291811Z 11007KT 20/01 A3018 RMK A01 T01990011  RH  029%=      5-min Rain = 0
KWA1 291812Z 10006KT 20/02 A3018 RMK A01 T01990015  RH  029%=      5-min Rain = 0
KWA1 291813Z 10005KT 20/02 A3018 RMK A01 T01990016  RH  030%=      5-min Rain = 0
KWA1 291814Z 09006KT 20/02 A3018 RMK A01 T02010018  RH  030%=      5-min Rain = 0
KWA1 291815Z 10006KT 20/01 A3018 RMK A01 T02020012  RH  028%=      5-min Rain = 0
KWA1 291816Z 10007KT 20/02 A3018 RMK A01 T02020016  RH  029%=      5-min Rain = 0
KWA1 291817Z 07004KT 20/01 A3018 RMK A01 T02020014  RH  028%=      5-min Rain = 0
KWA1 291818Z 06003KT 20/02 A3019 RMK A01 T02020015  RH  029%=      5-min Rain = 0
KWA1 291819Z 05005KT 20/01 A3019 RMK A01 T02030014  RH  029%=      5-min Rain = 0
KWA1 291820Z 08005KT 20/01 A3019 RMK A01 T02020014  RH  029%=      5-min Rain = 0
KWA1 291821Z 09003KT 20/01 A3019 RMK A01 T02010012  RH  028%=      5-min Rain = 0
KWA1 291822Z 08004KT 20/01 A3019 RMK A01 T02000013  RH  029%=      5-min Rain = 0
KWA1 291823Z 08004KT 20/01 A3019 RMK A01 T02000014  RH  029%=      5-min Rain = 0
KWA1 291824Z 08004KT 20/01 A3019 RMK A01 T02000014  RH  029%=      5-min Rain = 0
KWA1 291825Z 06003KT 20/02 A3019 RMK A01 T02000015  RH  029%=      5-min Rain = 0
KWA1 291826Z 08007KT 20/02 A3019 RMK A01 T02010017  RH  029%=      5-min Rain = 0
KWA1 291827Z 09007KT 20/02 A3018 RMK A01 T02030015  RH  029%=      5-min Rain = 0
KWA1 291828Z 10005KT 20/01 A3018 RMK A01 T02030012  RH  028%=      5-min Rain = 0
KWA1 291829Z 10005KT 20/01 A3018 RMK A01 T02030014  RH  029%=      5-min Rain = 0
KWA1 291830Z 10004KT 20/02 A3017 RMK A01 T02030015  RH  029%=      5-min Rain = 0
KWA1 291831Z 09005KT 20/02 A3017 RMK A01 T02030015  RH  029%=      5-min Rain = 0
KWA1 291832Z 09005KT 20/01 A3017 RMK A01 T02030014  RH  028%=      5-min Rain = 0
KWA1 291833Z 10005KT 20/02 A3017 RMK A01 T02040022  RH  030%=      5-min Rain = 0
KWA1 291834Z 09005KT 21/02 A3017 RMK A01 T02050017  RH  029%=      5-min Rain = 0
KWA1 291835Z 07006KT 21/02 A3017 RMK A01 T02070019  RH  029%=      5-min Rain = 0
KWA1 291836Z 07005KT 21/02 A3017 RMK A01 T02080018  RH  028%=      5-min Rain = 0
KWA1 291837Z 06004KT 21/02 A3017 RMK A01 T02080021  RH  029%=      5-min Rain = 0
KWA1 291838Z 07004KT 21/02 A3017 RMK A01 T02080018  RH  028%=      5-min Rain = 0
KWA1 291839Z 07005KT 21/02 A3017 RMK A01 T02080019  RH  029%=      5-min Rain = 0
KWA1 291840Z 08006KT 21/02 A3017 RMK A01 T02060018  RH  029%=      5-min Rain = 0
KWA1 291841Z 06006KT 21/02 A3016 RMK A01 T02050021  RH  029%=      5-min Rain = 0
KWA1 291842Z 08007KT 21/02 A3016 RMK A01 T02050023  RH  030%=      5-min Rain = 0
KWA1 291843Z 08009KT 21/03 A3016 RMK A01 T02080025  RH  030%=      5-min Rain = 0
KWA1 291844Z 08009KT 21/02 A3016 RMK A01 T02100023  RH  029%=      5-min Rain = 0
KWA1 291845Z 09009KT 21/02 A3016 RMK A01 T02110024  RH  029%=      5-min Rain = 0
KWA1 291846Z 09006KT 21/02 A3016 RMK A01 T02130023  RH  028%=      5-min Rain = 0
KWA1 291847Z 08008KT 21/02 A3016 RMK A01 T02130024  RH  029%=      5-min Rain = 0
KWA1 291848Z 07008KT 21/03 A3016 RMK A01 T02120025  RH  029%=      5-min Rain = 0
KWA1 291849Z 08009KT 21/03 A3016 RMK A01 T02140028  RH  029%=      5-min Rain = 0
KWA1 291850Z 08007KT 22/03 A3017 RMK A01 T02150026  RH  029%=      5-min Rain = 0
KWA1 291851Z 09006KT 22/03 A3017 RMK A01 T02150026  RH  029%=      5-min Rain = 0
KWA1 291852Z 09007KT 22/03 A3016 RMK A01 T02160026  RH  028%=      5-min Rain = 0
KWA1 291853Z 08005KT 21/02 A3016 RMK A01 T02140021  RH  028%=      5-min Rain = 0
KWA1 291854Z 09007KT 21/02 A3016 RMK A01 T02120023  RH  029%=      5-min Rain = 0
KWA1 291855Z 08008KT 21/02 A3016 RMK A01 T02120022  RH  029%=      5-min Rain = 0
KWA1 291856Z 09008KT 21/02 A3016 RMK A01 T02120022  RH  029%=      5-min Rain = 0
KWA1 291857Z 08007KT 21/03 A3016 RMK A01 T02120026  RH  029%=      5-min Rain = 0
KWA1 291858Z 09005KT 21/02 A3016 RMK A01 T02130024  RH  029%=      5-min Rain = 0
KWA1 291859Z 08006KT 21/02 A3016 RMK A01 T02130024  RH  029%=      5-min Rain = 0
KWA1 291900Z 08009KT 21/03 A3016 RMK A01 T02120026  RH  029%=      5-min Rain = 0
KWA1 291901Z 08009KT 21/02 A3015 RMK A01 T02120021  RH  028%=      5-min Rain = 0
KWA1 291902Z 08008KT 21/02 A3015 RMK A01 T02120019  RH  028%=      5-min Rain = 0
KWA1 291903Z 08007KT 21/02 A3015 RMK A01 T02120021  RH  028%=      5-min Rain = 0
KWA1 291904Z 07006KT 21/02 A3015 RMK A01 T02140021  RH  028%=      5-min Rain = 0
KWA1 291905Z 07007KT 21/02 A3014 RMK A01 T02140020  RH  028%=      5-min Rain = 0
KWA1 291906Z 07007KT 21/03 A3014 RMK A01 T02140026  RH  029%=      5-min Rain = 0
KWA1 291907Z 08006KT 22/02 A3014 RMK A01 T02150024  RH  028%=      5-min Rain = 0
KWA1 291908Z 09005KT 22/02 A3014 RMK A01 T02160020  RH  027%=      5-min Rain = 0
KWA1 291909Z 09006KT 22/02 A3014 RMK A01 T02170018  RH  027%=      5-min Rain = 0
KWA1 291910Z 11007KT 22/01 A3014 RMK A01 T02170014  RH  026%=      5-min Rain = 0
KWA1 291911Z 10004KT 22/02 A3014 RMK A01 T02170015  RH  026%=      5-min Rain = 0
KWA1 291912Z 08009KT 22/02 A3015 RMK A01 T02180021  RH  027%=      5-min Rain = 0
KWA1 291913Z 08010KT 22/02 A3015 RMK A01 T02200017  RH  026%=      5-min Rain = 0
KWA1 291914Z 07007KT 22/02 A3015 RMK A01 T02200015  RH  026%=      5-min Rain = 0
KWA1 291915Z 07007KT 22/01 A3015 RMK A01 T02180014  RH  026%=      5-min Rain = 0
KWA1 291916Z 07006KT 22/01 A3014 RMK A01 T02170013  RH  026%=      5-min Rain = 0
KWA1 291917Z 10007KT 22/01 A3014 RMK A01 T02180009  RH  025%=      5-min Rain = 0
KWA1 291918Z 08009G15KT 22/01 A3014 RMK A01 T02210009  RH  024%=      5-min Rain = 0
KWA1 291919Z 10011KT 22/01 A3014 RMK A01 T02240007  RH  024%=      5-min Rain = 0
KWA1 291920Z 11010KT 23/M01 A3014 RMK A01 T02251005  RH  022%=      5-min Rain = 0
KWA1 291921Z 12011KT 22/M01 A3014 RMK A01 T02241006  RH  022%=      5-min Rain = 0
KWA1 291922Z 12012KT 23/M01 A3014 RMK A01 T02251007  RH  021%=      5-min Rain = 0
KWA1 291923Z 11011KT 23/M01 A3013 RMK A01 T02251010  RH  021%=      5-min Rain = 0
KWA1 291924Z 12010KT 23/M02 A3013 RMK A01 T02261015  RH  020%=      5-min Rain = 0
KWA1 291925Z 12009KT 23/M01 A3013 RMK A01 T02251011  RH  021%=      5-min Rain = 0
KWA1 291926Z 09009KT 22/M01 A3013 RMK A01 T02221007  RH  022%=      5-min Rain = 0
KWA1 291927Z 09010KT 22/00 A3013 RMK A01 T02220002  RH  023%=      5-min Rain = 0
KWA1 291928Z 10010KT 22/01 A3013 RMK A01 T02240012  RH  025%=      5-min Rain = 0
KWA1 291929Z 11009KT 22/02 A3013 RMK A01 T02230019  RH  026%=      5-min Rain = 0
KWA1 291930Z 11008KT 22/02 A3013 RMK A01 T02210019  RH  026%=      5-min Rain = 0
KWA1 291931Z 09006KT 22/02 A3013 RMK A01 T02190017  RH  026%=      5-min Rain = 0
KWA1 291932Z 09006KT 22/02 A3013 RMK A01 T02190019  RH  027%=      5-min Rain = 0
KWA1 291933Z 08006KT 22/02 A3013 RMK A01 T02220018  RH  026%=      5-min Rain = 0
KWA1 291934Z 11009KT 22/01 A3013 RMK A01 T02240011  RH  024%=      5-min Rain = 0
KWA1 291935Z 09013KT 23/M02 A3012 RMK A01 T02281018  RH  019%=      5-min Rain = 0
KWA1 291936Z 11012KT 23/M02 A3012 RMK A01 T02291021  RH  019%=      5-min Rain = 0
KWA1 291937Z 11011KT 23/M02 A3012 RMK A01 T02281021  RH  019%=      5-min Rain = 0
KWA1 291938Z 10010KT 23/M01 A3012 RMK A01 T02281011  RH  020%=      5-min Rain = 0
KWA1 291939Z 09011KT 23/M02 A3012 RMK A01 T02311021  RH  019%=      5-min Rain = 0
KWA1 291940Z 10012KT 23/M02 A3012 RMK A01 T02291024  RH  018%=      5-min Rain = 0
KWA1 291941Z 10008KT 23/M03 A3012 RMK A01 T02281028  RH  018%=      5-min Rain = 0
KWA1 291942Z 09009KT 23/M03 A3012 RMK A01 T02261028  RH  018%=      5-min Rain = 0
KWA1 291943Z 13009KT 23/M02 A3012 RMK A01 T02271017  RH  020%=      5-min Rain = 0
KWA1 291944Z 11008KT 23/M03 A3012 RMK A01 T02261027  RH  018%=      5-min Rain = 0
KWA1 291945Z 13008KT 22/M02 A3012 RMK A01 T02241021  RH  019%=      5-min Rain = 0
KWA1 291946Z 15009KT 23/M02 A3012 RMK A01 T02251015  RH  020%=      5-min Rain = 0
KWA1 291947Z 14008KT 23/M02 A3012 RMK A01 T02251022  RH  019%=      5-min Rain = 0
KWA1 291948Z 12008KT 23/M02 A3012 RMK A01 T02261024  RH  019%=      5-min Rain = 0
KWA1 291949Z 13007KT 23/M02 A3012 RMK A01 T02261019  RH  019%=      5-min Rain = 0
KWA1 291950Z 13010KT 23/M01 A3012 RMK A01 T02291012  RH  020%=      5-min Rain = 0
KWA1 291951Z 12010KT 23/M02 A3012 RMK A01 T02311019  RH  019%=      5-min Rain = 0
KWA1 291952Z 11009KT 23/M02 A3012 RMK A01 T02301022  RH  019%=      5-min Rain = 0
KWA1 291953Z 10010KT 23/M03 A3012 RMK A01 T02301027  RH  018%=      5-min Rain = 0
KWA1 291954Z 12011KT 23/M03 A3012 RMK A01 T02291026  RH  018%=      5-min Rain = 0
KWA1 291955Z 12009KT 23/M02 A3012 RMK A01 T02291019  RH  019%=      5-min Rain = 0
KWA1 291956Z 12010KT 23/M01 A3012 RMK A01 T02291009  RH  021%=      5-min Rain = 0
KWA1 291957Z 11010KT 23/M02 A3012 RMK A01 T02301023  RH  018%=      5-min Rain = 0
KWA1 291958Z 12007KT 23/M02 A3012 RMK A01 T02281023  RH  019%=      5-min Rain = 0
KWA1 291959Z 14006KT 23/M02 A3012 RMK A01 T02261019  RH  019%=      5-min Rain = 0
KWA1 292000Z 12009KT 23/M02 A3012 RMK A01 T02261022  RH  019%=      5-min Rain = 0
KWA1 292001Z 13009KT 23/M02 A3012 RMK A01 T02251024  RH  019%=      5-min Rain = 0
KWA1 292002Z 12008KT 23/M02 A3012 RMK A01 T02261020  RH  019%=      5-min Rain = 0
KWA1 292003Z 10007KT 23/M02 A3012 RMK A01 T02271021  RH  019%=      5-min Rain = 0
KWA1 292004Z 09007KT 23/M02 A3012 RMK A01 T02281019  RH  019%=      5-min Rain = 0
KWA1 292005Z 11010KT 23/M01 A3012 RMK A01 T02291014  RH  020%=      5-min Rain = 0
KWA1 292006Z 11010KT 23/M01 A3012 RMK A01 T02301012  RH  020%=      5-min Rain = 0
KWA1 292007Z 11009KT 23/M02 A3012 RMK A01 T02291021  RH  019%=      5-min Rain = 0
KWA1 292008Z 11008KT 23/M02 A3012 RMK A01 T02261024  RH  019%=      5-min Rain = 0
KWA1 292009Z 12007KT 23/M02 A3012 RMK A01 T02261023  RH  019%=      5-min Rain = 0
KWA1 292010Z 12009KT 23/M01 A3012 RMK A01 T02261012  RH  020%=      5-min Rain = 0
KWA1 292011Z 11009KT 23/M01 A3012 RMK A01 T02281011  RH  020%=      5-min Rain = 0
KWA1 292012Z 10009KT 23/M01 A3012 RMK A01 T02291012  RH  020%=      5-min Rain = 0
KWA1 292013Z 10010KT 23/M02 A3012 RMK A01 T02291015  RH  020%=      5-min Rain = 0
KWA1 292014Z 10009KT 23/M02 A3012 RMK A01 T02281016  RH  020%=      5-min Rain = 0
KWA1 292015Z 10009KT 23/M02 A3012 RMK A01 T02271017  RH  020%=      5-min Rain = 0
KWA1 292016Z 10009KT 23/M02 A3012 RMK A01 T02261016  RH  020%=      5-min Rain = 0
KWA1 292017Z 09008KT 23/M02 A3011 RMK A01 T02271017  RH  020%=      5-min Rain = 0
KWA1 292018Z 10009KT 23/M02 A3011 RMK A01 T02271017  RH  020%=      5-min Rain = 0
KWA1 292019Z 10007KT 23/M02 A3011 RMK A01 T02261018  RH  020%=      5-min Rain = 0
KWA1 292020Z 10009KT 23/M01 A3011 RMK A01 T02281006  RH  021%=      5-min Rain = 0
KWA1 292021Z 12009KT 23/00 A3011 RMK A01 T02330000  RH  021%=      5-min Rain = 0
KWA1 292022Z 11012KT 24/M01 A3011 RMK A01 T02351006  RH  020%=      5-min Rain = 0
KWA1 292023Z 10010KT 23/M01 A3011 RMK A01 T02331014  RH  019%=      5-min Rain = 0
KWA1 292024Z 10008KT 23/M02 A3011 RMK A01 T02321015  RH  019%=      5-min Rain = 0
KWA1 292025Z 11008KT 23/M01 A3011 RMK A01 T02321010  RH  020%=      5-min Rain = 0
KWA1 292026Z 13010KT 24/M01 A3011 RMK A01 T02351006  RH  020%=      5-min Rain = 0
KWA1 292027Z 13007KT 23/M02 A3011 RMK A01 T02341022  RH  018%=      5-min Rain = 0
KWA1 292028Z 14007G12KT 23/M02 A3011 RMK A01 T02321015  RH  019%=      5-min Rain = 0
KWA1 292029Z 14008KT 23/M02 A3011 RMK A01 T02321015  RH  019%=      5-min Rain = 0
KWA1 292030Z 12008KT 23/M02 A3011 RMK A01 T02321023  RH  018%=      5-min Rain = 0
KWA1 292031Z 12008KT 23/M01 A3011 RMK A01 T02301014  RH  020%=      5-min Rain = 0
KWA1 292032Z 12011KT 23/M01 A3011 RMK A01 T02321012  RH  020%=      5-min Rain = 0
KWA1 292033Z 14012KT 23/M02 A3011 RMK A01 T02331016  RH  019%=      5-min Rain = 0
KWA1 292034Z 14011KT 23/M02 A3011 RMK A01 T02311017  RH  019%=      5-min Rain = 0
KWA1 292035Z 15009KT 23/M02 A3011 RMK A01 T02301020  RH  019%=      5-min Rain = 0
KWA1 292036Z 13010G15KT 23/M02 A3011 RMK A01 T02301017  RH  019%=      5-min Rain = 0
KWA1 292037Z 12014KT 23/M02 A301 RMK A01 T02301024  RH  018%=      5-min Rain = 0
KWA1 292038Z 13013KT 23/M02 A301 RMK A01 T02291017  RH  019%=      5-min Rain = 0
KWA1 292039Z 13014KT 23/M02 A301 RMK A01 T02291023  RH  018%=      5-min Rain = 0
KWA1 292040Z 13014KT 23/M02 A301 RMK A01 T02281022  RH  019%=      5-min Rain = 0
KWA1 292041Z 13011KT 23/M03 A301 RMK A01 T02271030  RH  018%=      5-min Rain = 0
KWA1 292042Z 13012KT 23/M03 A301 RMK A01 T02271028  RH  018%=      5-min Rain = 0
KWA1 292043Z 12012KT 23/M03 A301 RMK A01 T02271025  RH  018%=      5-min Rain = 0
KWA1 292044Z 12014KT 23/M03 A301 RMK A01 T02281027  RH  018%=      5-min Rain = 0
KWA1 292045Z 12011KT 23/M02 A301 RMK A01 T02291024  RH  018%=      5-min Rain = 0
KWA1 292046Z 12012KT 23/M03 A301 RMK A01 T02291027  RH  018%=      5-min Rain = 0
KWA1 292047Z 13014KT 23/M02 A301 RMK A01 T02281023  RH  019%=      5-min Rain = 0
KWA1 292048Z 13011KT 23/M02 A301 RMK A01 T02281021  RH  019%=      5-min Rain = 0
KWA1 292049Z 13011KT 23/M02 A301 RMK A01 T02291021  RH  019%=      5-min Rain = 0
KWA1 292050Z 13008KT 23/M02 A301 RMK A01 T02301024  RH  018%=      5-min Rain = 0
KWA1 292051Z 13010KT 23/M03 A301 RMK A01 T02301026  RH  018%=      5-min Rain = 0
KWA1 292052Z 13014KT 23/M02 A301 RMK A01 T02311017  RH  019%=      5-min Rain = 0
KWA1 292053Z 13013KT 23/M02 A301 RMK A01 T02311023  RH  018%=      5-min Rain = 0
KWA1 292054Z 12010KT 23/M03 A301 RMK A01 T02301029  RH  018%=      5-min Rain = 0
KWA1 292055Z 12008KT 23/M02 A301 RMK A01 T02291019  RH  019%=      5-min Rain = 0
KWA1 292056Z 11009G14KT 23/M02 A301 RMK A01 T02301024  RH  018%=      5-min Rain = 0
KWA1 292057Z 10011KT 23/M03 A301 RMK A01 T02301028  RH  018%=      5-min Rain = 0
KWA1 292058Z 10010KT 23/M02 A301 RMK A01 T02301023  RH  018%=      5-min Rain = 0
KWA1 292059Z 11011KT 23/M02 A301 RMK A01 T02331023  RH  018%=      5-min Rain = 0
KWA1 292100Z 12009KT 23/M02 A3009 RMK A01 T02321024  RH  018%=      5-min Rain = 0
KWA1 292101Z 13012KT 23/M02 A301 RMK A01 T02321020  RH  019%=      5-min Rain = 0
KWA1 292102Z 13014KT 23/M02 A301 RMK A01 T02321017  RH  019%=      5-min Rain = 0
KWA1 292103Z 12012KT 23/M02 A301 RMK A01 T02321018  RH  019%=      5-min Rain = 0
KWA1 292104Z 13011KT 23/M02 A301 RMK A01 T02311023  RH  018%=      5-min Rain = 0
KWA1 292105Z 13009KT 23/M03 A301 RMK A01 T02291026  RH  018%=      5-min Rain = 0
KWA1 292106Z 14009KT 23/M02 A301 RMK A01 T02281024  RH  019%=      5-min Rain = 0
KWA1 292107Z 14010KT 23/M02 A301 RMK A01 T02271021  RH  019%=      5-min Rain = 0
KWA1 292108Z 12010KT 23/M02 A301 RMK A01 T02271023  RH  019%=      5-min Rain = 0
KWA1 292109Z 11007KT 23/M02 A301 RMK A01 T02271023  RH  019%=      5-min Rain = 0
KWA1 292110Z 12009KT 23/M02 A301 RMK A01 T02281023  RH  019%=      5-min Rain = 0
KWA1 292111Z 14010KT 23/M02 A3009 RMK A01 T02281017  RH  019%=      5-min Rain = 0
KWA1 292112Z 14010KT 23/M02 A3009 RMK A01 T02291016  RH  020%=      5-min Rain = 0
KWA1 292113Z 13012KT 23/M02 A3009 RMK A01 T02291022  RH  019%=      5-min Rain = 0
KWA1 292114Z 12010KT 23/M02 A3009 RMK A01 T02291019  RH  019%=      5-min Rain = 0
KWA1 292115Z 13012KT 23/M01 A3008 RMK A01 T02301013  RH  020%=      5-min Rain = 0
KWA1 292116Z 13010KT 23/M02 A3008 RMK A01 T02311019  RH  019%=      5-min Rain = 0
KWA1 292117Z 13011KT 23/M02 A3008 RMK A01 T02301015  RH  019%=      5-min Rain = 0
KWA1 292118Z 12012KT 23/M02 A3008 RMK A01 T02301016  RH  019%=      5-min Rain = 0
KWA1 292119Z 11009KT 23/M01 A3008 RMK A01 T02311014  RH  020%=      5-min Rain = 0
KWA1 292120Z 10011KT 23/M02 A3008 RMK A01 T02331021  RH  018%=      5-min Rain = 0
KWA1 292121Z 12010KT 23/M02 A3008 RMK A01 T02331020  RH  019%=      5-min Rain = 0
KWA1 292122Z 12012KT 23/M02 A3008 RMK A01 T02321018  RH  019%=      5-min Rain = 0
KWA1 292123Z 11014KT 23/M02 A3009 RMK A01 T02311018  RH  019%=      5-min Rain = 0
KWA1 292124Z 12012KT 23/M02 A3009 RMK A01 T02291020  RH  019%=      5-min Rain = 0
KWA1 292125Z 13012KT 23/M02 A3009 RMK A01 T02291015  RH  020%=      5-min Rain = 0
KWA1 292126Z 13012KT 23/M02 A3009 RMK A01 T02291018  RH  019%=      5-min Rain = 0
KWA1 292127Z 13010KT 23/M02 A3009 RMK A01 T02281016  RH  020%=      5-min Rain = 0
KWA1 292128Z 13010KT 23/M02 A3009 RMK A01 T02281020  RH  019%=      5-min Rain = 0
KWA1 292129Z 10009KT 23/M02 A3009 RMK A01 T02271024  RH  019%=      5-min Rain = 0
KWA1 292130Z 11008KT 23/M03 A3009 RMK A01 T02271025  RH  018%=      5-min Rain = 0
KWA1 292131Z 11012KT 23/M02 A3009 RMK A01 T02271020  RH  019%=      5-min Rain = 0
KWA1 292132Z 10012KT 23/M02 A3009 RMK A01 T02281024  RH  018%=      5-min Rain = 0
KWA1 292133Z 11011KT 23/M03 A3009 RMK A01 T02271027  RH  018%=      5-min Rain = 0
KWA1 292134Z 13013KT 23/M02 A3008 RMK A01 T02261018  RH  019%=      5-min Rain = 0
KWA1 292135Z 13013KT 23/M02 A3008 RMK A01 T02261021  RH  019%=      5-min Rain = 0
KWA1 292136Z 12012KT 23/M02 A3008 RMK A01 T02251017  RH  020%=      5-min Rain = 0
KWA1 292137Z 12011KT 23/M02 A3008 RMK A01 T02261023  RH  019%=      5-min Rain = 0
KWA1 292138Z 12011KT 23/M02 A3007 RMK A01 T02251022  RH  019%=      5-min Rain = 0
KWA1 292139Z 11012KT 23/M02 A3007 RMK A01 T02251022  RH  019%=      5-min Rain = 0
KWA1 292140Z 12011KT 23/M02 A3007 RMK A01 T02251019  RH  020%=      5-min Rain = 0
KWA1 292141Z 12012KT 23/M01 A3008 RMK A01 T02261011  RH  021%=      5-min Rain = 0
KWA1 292142Z 11010KT 23/M02 A3008 RMK A01 T02261017  RH  020%=      5-min Rain = 0
KWA1 292143Z 10010KT 23/M02 A3008 RMK A01 T02251020  RH  019%=      5-min Rain = 0
KWA1 292144Z 09012KT 23/M02 A3008 RMK A01 T02261019  RH  019%=      5-min Rain = 0
KWA1 292145Z 10013KT 23/M02 A3008 RMK A01 T02271020  RH  019%=      5-min Rain = 0
KWA1 292146Z 11011KT 23/M02 A3008 RMK A01 T02261018  RH  019%=      5-min Rain = 0
KWA1 292147Z 12011KT 23/M01 A3008 RMK A01 T02271011  RH  020%=      5-min Rain = 0
KWA1 292148Z 12010KT 23/M02 A3008 RMK A01 T02281015  RH  020%=      5-min Rain = 0
KWA1 292149Z 12010KT 23/M01 A3008 RMK A01 T02261013  RH  020%=      5-min Rain = 0
KWA1 292150Z 11011KT 23/M02 A3008 RMK A01 T02261016  RH  020%=      5-min Rain = 0
KWA1 292151Z 10011KT 23/M02 A3008 RMK A01 T02251017  RH  020%=      5-min Rain = 0
KWA1 292152Z 10009KT 22/M02 A3008 RMK A01 T02241016  RH  020%=      5-min Rain = 0
KWA1 292153Z 11012KT 22/M02 A3008 RMK A01 T02241016  RH  020%=      5-min Rain = 0
KWA1 292154Z 13014KT 22/M01 A3008 RMK A01 T02231011  RH  021%=      5-min Rain = 0
KWA1 292155Z 12013KT 22/M01 A3008 RMK A01 T02221010  RH  021%=      5-min Rain = 0
KWA1 292156Z 12010KT 22/M01 A3008 RMK A01 T02211006  RH  022%=      5-min Rain = 0
KWA1 292157Z 12011KT 22/M00 A3008 RMK A01 T02221004  RH  022%=      5-min Rain = 0
KWA1 292158Z 12011KT 22/M01 A3007 RMK A01 T02231006  RH  022%=      5-min Rain = 0
KWA1 292159Z 13011KT 22/M00 A3007 RMK A01 T02231004  RH  022%=      5-min Rain = 0
KWA1 292200Z 13011KT 22/M01 A3007 RMK A01 T02231006  RH  022%=      5-min Rain = 0
KWA1 292201Z 12013KT 22/M01 A3007 RMK A01 T02221007  RH  022%=      5-min Rain = 0
KWA1 292202Z 12012KT 22/M01 A3007 RMK A01 T02221005  RH  022%=      5-min Rain = 0
KWA1 292203Z 11011KT 22/M01 A3008 RMK A01 T02221007  RH  022%=      5-min Rain = 0
KWA1 292204Z 11011KT 22/M01 A3008 RMK A01 T02221011  RH  021%=      5-min Rain = 0
KWA1 292205Z 11012KT 22/M02 A3008 RMK A01 T02221015  RH  020%=      5-min Rain = 0
KWA1 292206Z 11011KT 22/M02 A3007 RMK A01 T02211016  RH  020%=      5-min Rain = 0
KWA1 292207Z 11011KT 22/M02 A3007 RMK A01 T02211015  RH  021%=      5-min Rain = 0
KWA1 292208Z 11011KT 22/M01 A3007 RMK A01 T02211012  RH  021%=      5-min Rain = 0
KWA1 292209Z 10011KT 22/M01 A3008 RMK A01 T02211013  RH  021%=      5-min Rain = 0
KWA1 292210Z 11011KT 22/M01 A3008 RMK A01 T02211014  RH  021%=      5-min Rain = 0
KWA1 292211Z 10013KT 22/M01 A3008 RMK A01 T02221013  RH  021%=      5-min Rain = 0
KWA1 292212Z 12013KT 22/M01 A3008 RMK A01 T02221011  RH  021%=      5-min Rain = 0
KWA1 292213Z 11012KT 22/M01 A3008 RMK A01 T02211007  RH  022%=      5-min Rain = 0
KWA1 292214Z 10012KT 22/M01 A3008 RMK A01 T02211010  RH  021%=      5-min Rain = 0
KWA1 292215Z 11014KT 22/M01 A3008 RMK A01 T02201013  RH  021%=      5-min Rain = 0
KWA1 292216Z 10013KT 22/M01 A3008 RMK A01 T02191013  RH  021%=      5-min Rain = 0
KWA1 292217Z 12011KT 22/M01 A3008 RMK A01 T02191008  RH  022%=      5-min Rain = 0
KWA1 292218Z 12013KT 22/M00 A3008 RMK A01 T02201003  RH  023%=      5-min Rain = 0
KWA1 292219Z 12015KT 22/M00 A3008 RMK A01 T02211003  RH  023%=      5-min Rain = 0
KWA1 292220Z 11013KT 22/M01 A3008 RMK A01 T02211006  RH  022%=      5-min Rain = 0
KWA1 292221Z 11013KT 22/M01 A3008 RMK A01 T02201006  RH  022%=      5-min Rain = 0
KWA1 292222Z 12013KT 22/M01 A3008 RMK A01 T02191007  RH  022%=      5-min Rain = 0
KWA1 292223Z 11013KT 22/M01 A3008 RMK A01 T02191006  RH  022%=      5-min Rain = 0
KWA1 292224Z 12013KT 22/M00 A3008 RMK A01 T02191004  RH  023%=      5-min Rain = 0
KWA1 292225Z 11013KT 22/M00 A3008 RMK A01 T02191003  RH  023%=      5-min Rain = 0
KWA1 292226Z 10014KT 22/M00 A3008 RMK A01 T02191004  RH  023%=      5-min Rain = 0
KWA1 292227Z 11013KT 22/M01 A3008 RMK A01 T02181006  RH  022%=      5-min Rain = 0
KWA1 292228Z 12012KT 22/M01 A3008 RMK A01 T02181005  RH  023%=      5-min Rain = 0
KWA1 292229Z 12014KT 22/00 A3007 RMK A01 T021800-0  RH  023%=      5-min Rain = 0
KWA1 292230Z 12016KT 22/M00 A3007 RMK A01 T02171001  RH  023%=      5-min Rain = 0
KWA1 292231Z 12015KT 22/M00 A3007 RMK A01 T02181002  RH  023%=      5-min Rain = 0
KWA1 292232Z 11011KT 22/M00 A3007 RMK A01 T02181002  RH  023%=      5-min Rain = 0
KWA1 292233Z 11010KT 22/00 A3008 RMK A01 T02180001  RH  024%=      5-min Rain = 0
KWA1 292234Z 12013KT 22/M00 A3008 RMK A01 T02181001  RH  023%=      5-min Rain = 0
KWA1 292235Z 11014KT 22/00 A3008 RMK A01 T02180004  RH  024%=      5-min Rain = 0
KWA1 292236Z 11012KT 22/00 A3008 RMK A01 T02180002  RH  024%=      5-min Rain = 0
KWA1 292237Z 11011KT 22/00 A3008 RMK A01 T02180001  RH  024%=      5-min Rain = 0
KWA1 292238Z 11012KT 22/00 A3008 RMK A01 T02180000  RH  024%=      5-min Rain = 0
KWA1 292239Z 11012KT 22/M00 A3008 RMK A01 T02181002  RH  023%=      5-min Rain = 0
KWA1 292240Z 11012KT 22/M00 A3008 RMK A01 T02171004  RH  023%=      5-min Rain = 0
KWA1 292241Z 10010KT 22/M00 A3008 RMK A01 T02161003  RH  023%=      5-min Rain = 0
KWA1 292242Z 10011KT 22/M00 A3008 RMK A01 T02161002  RH  023%=      5-min Rain = 0
KWA1 292243Z 10011KT 22/M00 A3008 RMK A01 T02161002  RH  023%=      5-min Rain = 0
KWA1 292244Z 10011KT 22/00 A3008 RMK A01 T021700-0  RH  023%=      5-min Rain = 0
KWA1 292245Z 11009KT 22/M00 A3008 RMK A01 T02161002  RH  023%=      5-min Rain = 0
KWA1 292246Z 10011KT 22/00 A3008 RMK A01 T021600-0  RH  024%=      5-min Rain = 0
KWA1 292247Z 11010KT 22/00 A3008 RMK A01 T02150000  RH  024%=      5-min Rain = 0
KWA1 292248Z 10011KT 22/00 A3008 RMK A01 T02150003  RH  024%=      5-min Rain = 0
KWA1 292249Z 10013KT 22/00 A3008 RMK A01 T02150004  RH  025%=      5-min Rain = 0
KWA1 292250Z 10011KT 22/01 A3008 RMK A01 T02150006  RH  025%=      5-min Rain = 0
KWA1 292251Z 11011KT 22/01 A3008 RMK A01 T02150007  RH  025%=      5-min Rain = 0
KWA1 292252Z 11013KT 22/01 A3008 RMK A01 T02150005  RH  025%=      5-min Rain = 0
KWA1 292253Z 11012KT 22/01 A3008 RMK A01 T02150005  RH  025%=      5-min Rain = 0
KWA1 292254Z 11012KT 22/01 A3008 RMK A01 T02150006  RH  025%=      5-min Rain = 0
KWA1 292255Z 10012KT 21/01 A3008 RMK A01 T02140005  RH  025%=      5-min Rain = 0
KWA1 292256Z 11012KT 21/00 A3007 RMK A01 T02140004  RH  025%=      5-min Rain = 0
KWA1 292257Z 10012KT 21/00 A3007 RMK A01 T02140002  RH  024%=      5-min Rain = 0
KWA1 292258Z 11012KT 22/00 A3007 RMK A01 T02150004  RH  025%=      5-min Rain = 0
KWA1 292259Z 11011KT 21/00 A3008 RMK A01 T02140004  RH  025%=      5-min Rain = 0
KWA1 292300Z 11011KT 21/00 A3008 RMK A01 T02140004  RH  025%=      5-min Rain = 0
KWA1 292301Z 11012KT 22/00 A3008 RMK A01 T02150004  RH  025%=      5-min Rain = 0
KWA1 292302Z 12012KT 21/00 A3008 RMK A01 T02140004  RH  025%=      5-min Rain = 0
KWA1 292303Z 11012KT 22/01 A3008 RMK A01 T02150005  RH  025%=      5-min Rain = 0
KWA1 292304Z 12013KT 21/00 A3008 RMK A01 T02140004  RH  025%=      5-min Rain = 0
KWA1 292305Z 11011KT 21/01 A3007 RMK A01 T02140006  RH  025%=      5-min Rain = 0
KWA1 292306Z 11013KT 21/01 A3007 RMK A01 T02140005  RH  025%=      5-min Rain = 0
KWA1 292307Z 11013KT 21/00 A3007 RMK A01 T02140000  RH  024%=      5-min Rain = 0
KWA1 292308Z 10013KT 21/M00 A3007 RMK A01 T02131004  RH  023%=      5-min Rain = 0
KWA1 292309Z 11012KT 21/M00 A3007 RMK A01 T02131004  RH  023%=      5-min Rain = 0
KWA1 292310Z 11012KT 21/00 A3007 RMK A01 T02130000  RH  024%=      5-min Rain = 0
KWA1 292311Z 11013KT 21/00 A3007 RMK A01 T02130000  RH  024%=      5-min Rain = 0
KWA1 292312Z 11013KT 21/M00 A3007 RMK A01 T02131002  RH  024%=      5-min Rain = 0
KWA1 292313Z 11013KT 21/M00 A3007 RMK A01 T02131002  RH  024%=      5-min Rain = 0
KWA1 292314Z 10012KT 21/M00 A3007 RMK A01 T02121002  RH  024%=      5-min Rain = 0
KWA1 292315Z 10013KT 21/M00 A3007 RMK A01 T02121003  RH  024%=      5-min Rain = 0
KWA1 292316Z 11012KT 21/M00 A3007 RMK A01 T02121004  RH  024%=      5-min Rain = 0
KWA1 292317Z 11011KT 21/M00 A3008 RMK A01 T02121004  RH  024%=      5-min Rain = 0
KWA1 292318Z 10011KT 21/M00 A3008 RMK A01 T02121003  RH  024%=      5-min Rain = 0
KWA1 292319Z 10011KT 21/M00 A3008 RMK A01 T02121004  RH  024%=      5-min Rain = 0
KWA1 292320Z 10013KT 21/M00 A3008 RMK A01 T02121004  RH  024%=      5-min Rain = 0
KWA1 292321Z 10014KT 21/M01 A3008 RMK A01 T02131006  RH  023%=      5-min Rain = 0
KWA1 292322Z 10013KT 21/M01 A3008 RMK A01 T02131005  RH  023%=      5-min Rain = 0
KWA1 292323Z 10013KT 21/M01 A3008 RMK A01 T02121006  RH  023%=      5-min Rain = 0
KWA1 292324Z 10014KT 21/M01 A3008 RMK A01 T02121007  RH  023%=      5-min Rain = 0
KWA1 292325Z 10012KT 21/M01 A3008 RMK A01 T02121008  RH  023%=      5-min Rain = 0
KWA1 292326Z 10011KT 21/M01 A3008 RMK A01 T02111007  RH  023%=      5-min Rain = 0
KWA1 292327Z 10012KT 21/M01 A3008 RMK A01 T02111005  RH  023%=      5-min Rain = 0
KWA1 292328Z 09014KT 21/M01 A3008 RMK A01 T02121008  RH  023%=      5-min Rain = 0
KWA1 292329Z 10014KT 21/M01 A3008 RMK A01 T02121011  RH  022%=      5-min Rain = 0
KWA1 292330Z 10011KT 21/M01 A3008 RMK A01 T02121008  RH  023%=      5-min Rain = 0
KWA1 292331Z 10010KT 21/M01 A3008 RMK A01 T02121005  RH  023%=      5-min Rain = 0
KWA1 292332Z 11009KT 21/M00 A3008 RMK A01 T02131004  RH  024%=      5-min Rain = 0
KWA1 292333Z 10012KT 21/M01 A3008 RMK A01 T02131007  RH  023%=      5-min Rain = 0
KWA1 292334Z 10014KT 21/M01 A3008 RMK A01 T02121008  RH  023%=      5-min Rain = 0
KWA1 292335Z 10013KT 21/M01 A3008 RMK A01 T02121009  RH  023%=      5-min Rain = 0
KWA1 292336Z 10011KT 21/M01 A3008 RMK A01 T02121009  RH  023%=      5-min Rain = 0
KWA1 292337Z 09015KT 21/M01 A3008 RMK A01 T02111008  RH  023%=      5-min Rain = 0
KWA1 292338Z 09014KT 21/M01 A3008 RMK A01 T02111011  RH  023%=      5-min Rain = 0
KWA1 292339Z 10013KT 21/M01 A3008 RMK A01 T02121009  RH  023%=      5-min Rain = 0
KWA1 292340Z 10012KT 21/M01 A3008 RMK A01 T02121011  RH  023%=      5-min Rain = 0
KWA1 292341Z 10011KT 21/M01 A3008 RMK A01 T02111007  RH  023%=      5-min Rain = 0
KWA1 292342Z 09012KT 21/M01 A3008 RMK A01 T02111007  RH  023%=      5-min Rain = 0
KWA1 292343Z 10012KT 21/M01 A3008 RMK A01 T02111006  RH  023%=      5-min Rain = 0
KWA1 292344Z 10012KT 21/M01 A3008 RMK A01 T02111006  RH  023%=      5-min Rain = 0
KWA1 292345Z 10011KT 21/M01 A3008 RMK A01 T02111007  RH  023%=      5-min Rain = 0
KWA1 292346Z 10009KT 21/M00 A3008 RMK A01 T02101004  RH  024%=      5-min Rain = 0
KWA1 292347Z 10010KT 21/M00 A3008 RMK A01 T02101001  RH  024%=      5-min Rain = 0
KWA1 292348Z 09010KT 21/M00 A3008 RMK A01 T02101001  RH  024%=      5-min Rain = 0
KWA1 292349Z 09011KT 21/M00 A3008 RMK A01 T02101003  RH  024%=      5-min Rain = 0
KWA1 292350Z 09011KT 21/M00 A3008 RMK A01 T02101002  RH  024%=      5-min Rain = 0
KWA1 292351Z 09012KT 21/M00 A3008 RMK A01 T02101003  RH  024%=      5-min Rain = 0
KWA1 292352Z 09012KT 21/M00 A3008 RMK A01 T02101002  RH  024%=      5-min Rain = 0
KWA1 292353Z 10012KT 21/M00 A3008 RMK A01 T02101003  RH  024%=      5-min Rain = 0
KWA1 292354Z 09012KT 21/M01 A3008 RMK A01 T02091006  RH  024%=      5-min Rain = 0
KWA1 292355Z 10012KT 21/M01 A3008 RMK A01 T02091005  RH  024%=      5-min Rain = 0
KWA1 292356Z 09012KT 21/M00 A3008 RMK A01 T02081004  RH  024%=      5-min Rain = 0
KWA1 292357Z 10012KT 21/M00 A3008 RMK A01 T02081004  RH  024%=      5-min Rain = 0
KWA1 292358Z 10013KT 21/M00 A3008 RMK A01 T02081003  RH  024%=      5-min Rain = 0
KWA1 292359Z 09014KT 21/M01 A3009 RMK A01 T02081005  RH  024%=      5-min Rain = 0
KWA1 300000Z 09012KT 21/M01 A3009 RMK A01 T02081005  RH  024%=      5-min Rain = 0
KWA1 300001Z 10012KT 21/M00 A3009 RMK A01 T02081003  RH  024%=      5-min Rain = 0
KWA1 300002Z 10013KT 21/M00 A3009 RMK A01 T02071003  RH  024%=      5-min Rain = 0
KWA1 300003Z 10011KT 21/M00 A3008 RMK A01 T02081002  RH  025%=      5-min Rain = 0
KWA1 300004Z 10010KT 21/00 A3008 RMK A01 T02070000  RH  025%=      5-min Rain = 0
KWA1 300005Z 10009KT 21/00 A3008 RMK A01 T02070001  RH  025%=      5-min Rain = 0
KWA1 300006Z 10012KT 21/00 A3008 RMK A01 T02070001  RH  025%=      5-min Rain = 0
KWA1 300007Z 10012KT 21/M00 A3008 RMK A01 T02071003  RH  025%=      5-min Rain = 0
KWA1 300008Z 10013KT 21/M00 A3008 RMK A01 T02061003  RH  025%=      5-min Rain = 0
KWA1 300009Z 10011KT 21/M00 A3008 RMK A01 T02061003  RH  025%=      5-min Rain = 0
KWA1 300010Z 10011KT 21/00 A3008 RMK A01 T020600-0  RH  025%=      5-min Rain = 0
KWA1 300011Z 10012KT 21/M00 A3008 RMK A01 T02051001  RH  025%=      5-min Rain = 0
KWA1 300012Z 10012KT 21/M00 A3008 RMK A01 T02051003  RH  025%=      5-min Rain = 0
KWA1 300013Z 10011KT 21/M00 A3008 RMK A01 T02051003  RH  025%=      5-min Rain = 0
KWA1 300014Z 10010KT 20/M00 A3008 RMK A01 T02041001  RH  025%=      5-min Rain = 0
KWA1 300015Z 10011KT 20/M00 A3008 RMK A01 T02041001  RH  025%=      5-min Rain = 0
KWA1 300016Z 11013KT 20/M00 A3008 RMK A01 T02041002  RH  025%=      5-min Rain = 0
KWA1 300017Z 10013KT 20/M01 A3008 RMK A01 T02041006  RH  025%=      5-min Rain = 0
KWA1 300018Z 10014KT 20/M01 A3008 RMK A01 T02031006  RH  025%=      5-min Rain = 0
KWA1 300019Z 10012KT 20/M01 A3008 RMK A01 T02041005  RH  025%=      5-min Rain = 0
KWA1 300020Z 10011KT 20/M00 A3008 RMK A01 T02031002  RH  025%=      5-min Rain = 0
KWA1 300021Z 10012KT 20/M00 A3008 RMK A01 T02031003  RH  025%=      5-min Rain = 0
KWA1 300022Z 10012KT 20/M01 A3008 RMK A01 T02031006  RH  025%=      5-min Rain = 0
KWA1 300023Z 10013KT 20/M01 A3007 RMK A01 T02021005  RH  025%=      5-min Rain = 0
KWA1 300024Z 10014KT 20/M01 A3007 RMK A01 T02021008  RH  024%=      5-min Rain = 0
KWA1 300025Z 10014KT 20/M01 A3007 RMK A01 T02021008  RH  024%=      5-min Rain = 0
KWA1 300026Z 10012KT 20/M01 A3007 RMK A01 T02021007  RH  024%=      5-min Rain = 0
KWA1 300027Z 10011KT 20/M01 A3007 RMK A01 T02021006  RH  025%=      5-min Rain = 0
KWA1 300028Z 10010KT 20/M01 A3007 RMK A01 T02011005  RH  025%=      5-min Rain = 0
KWA1 300029Z 11011KT 20/M00 A3007 RMK A01 T02001004  RH  025%=      5-min Rain = 0
KWA1 300030Z 11011KT 20/M01 A3007 RMK A01 T02001005  RH  025%=      5-min Rain = 0
KWA1 300031Z 11011KT 20/M01 A3007 RMK A01 T02001005  RH  025%=      5-min Rain = 0
KWA1 300032Z 11013KT 20/M01 A3007 RMK A01 T02001008  RH  025%=      5-min Rain = 0
KWA1 300033Z 11013KT 20/M01 A3007 RMK A01 T02001010  RH  024%=      5-min Rain = 0
KWA1 300034Z 11011KT 20/M01 A3007 RMK A01 T02001010  RH  024%=      5-min Rain = 0
KWA1 300035Z 10012KT 20/M01 A3007 RMK A01 T02001008  RH  025%=      5-min Rain = 0
KWA1 300036Z 11011KT 20/M01 A3007 RMK A01 T01991010  RH  025%=      5-min Rain = 0
KWA1 300037Z 11011KT 20/M01 A3007 RMK A01 T01991009  RH  025%=      5-min Rain = 0
KWA1 300038Z 11012KT 20/M01 A3007 RMK A01 T01981010  RH  024%=      5-min Rain = 0
KWA1 300039Z 10011KT 20/M01 A3007 RMK A01 T01981010  RH  025%=      5-min Rain = 0
KWA1 300040Z 10011KT 20/M01 A3007 RMK A01 T01981009  RH  025%=      5-min Rain = 0
KWA1 300041Z 11010KT 20/M01 A3008 RMK A01 T01971008  RH  025%=      5-min Rain = 0
KWA1 300042Z 11010KT 20/M01 A3007 RMK A01 T01971008  RH  025%=      5-min Rain = 0
KWA1 300043Z 11010KT 20/M01 A3007 RMK A01 T01971009  RH  025%=      5-min Rain = 0
KWA1 300044Z 10011KT 20/M01 A3007 RMK A01 T01971008  RH  025%=      5-min Rain = 0
KWA1 300045Z 10010KT 20/M01 A3007 RMK A01 T01961007  RH  025%=      5-min Rain = 0
KWA1 300046Z 10010KT 20/M01 A3007 RMK A01 T01961005  RH  026%=      5-min Rain = 0
KWA1 300047Z 10010KT 20/M01 A3008 RMK A01 T01951005  RH  026%=      5-min Rain = 0
KWA1 300048Z 10009KT 20/M00 A3008 RMK A01 T01951004  RH  026%=      5-min Rain = 0
KWA1 300049Z 10009KT 20/M00 A3008 RMK A01 T01951004  RH  026%=      5-min Rain = 0
KWA1 300050Z 10009KT 19/M00 A3008 RMK A01 T01941004  RH  026%=      5-min Rain = 0
KWA1 300051Z 10009KT 19/M00 A3008 RMK A01 T01941003  RH  027%=      5-min Rain = 0
KWA1 300052Z 10010KT 19/M00 A3008 RMK A01 T01931003  RH  027%=      5-min Rain = 0
KWA1 300053Z 10009KT 19/M00 A3008 RMK A01 T01931002  RH  027%=      5-min Rain = 0
KWA1 300054Z 10009KT 19/M00 A3008 RMK A01 T01931002  RH  027%=      5-min Rain = 0
KWA1 300055Z 10009KT 19/M00 A3008 RMK A01 T01921003  RH  027%=      5-min Rain = 0
KWA1 300056Z 10011KT 19/M00 A3008 RMK A01 T01931003  RH  027%=      5-min Rain = 0
KWA1 300057Z 10010KT 19/M00 A3008 RMK A01 T01931002  RH  027%=      5-min Rain = 0
KWA1 300058Z 10010KT 19/M00 A3008 RMK A01 T01921002  RH  027%=      5-min Rain = 0
KWA1 300059Z 10010KT 19/M00 A3007 RMK A01 T01921001  RH  027%=      5-min Rain = 0
KWA1 300100Z 10011KT 19/M00 A3007 RMK A01 T01921002  RH  027%=      5-min Rain = 0
KWA1 300101Z 10010KT 19/M00 A3007 RMK A01 T01921002  RH  027%=      5-min Rain = 0
KWA1 300102Z 10010KT 19/M00 A3007 RMK A01 T01921002  RH  027%=      5-min Rain = 0
KWA1 300103Z 10010KT 19/M00 A3008 RMK A01 T01911001  RH  027%=      5-min Rain = 0
KWA1 300104Z 10010KT 19/00 A3008 RMK A01 T019100-0  RH  028%=      5-min Rain = 0
KWA1 300105Z 10008KT 19/00 A3008 RMK A01 T01910001  RH  028%=      5-min Rain = 0
KWA1 300106Z 10010KT 19/00 A3008 RMK A01 T01900001  RH  028%=      5-min Rain = 0
KWA1 300107Z 10009KT 19/00 A3008 RMK A01 T01900000  RH  028%=      5-min Rain = 0
KWA1 300108Z 10009KT 19/00 A3008 RMK A01 T01900002  RH  028%=      5-min Rain = 0
KWA1 300109Z 10008KT 19/00 A3008 RMK A01 T01890002  RH  029%=      5-min Rain = 0
KWA1 300110Z 09008KT 19/00 A3008 RMK A01 T01880003  RH  029%=      5-min Rain = 0
KWA1 300111Z 09008KT 19/00 A3008 RMK A01 T01880003  RH  029%=      5-min Rain = 0
KWA1 300112Z 09008KT 19/00 A3008 RMK A01 T01870004  RH  029%=      5-min Rain = 0
KWA1 300113Z 10008KT 19/00 A3008 RMK A01 T01870004  RH  029%=      5-min Rain = 0
KWA1 300114Z 10008KT 19/01 A3008 RMK A01 T01860005  RH  029%=      5-min Rain = 0
KWA1 300115Z 10007KT 19/01 A3008 RMK A01 T01860005  RH  030%=      5-min Rain = 0
KWA1 300116Z 10007KT 19/01 A3008 RMK A01 T01860005  RH  030%=      5-min Rain = 0
KWA1 300117Z 10007KT 19/01 A3008 RMK A01 T01850006  RH  030%=      5-min Rain = 0
KWA1 300118Z 10007KT 19/01 A3008 RMK A01 T01850006  RH  030%=      5-min Rain = 0
KWA1 300119Z 10007KT 18/01 A3008 RMK A01 T01840007  RH  030%=      5-min Rain = 0
KWA1 300120Z 09007KT 18/01 A3008 RMK A01 T01840007  RH  030%=      5-min Rain = 0
KWA1 300121Z 09007KT 18/01 A3008 RMK A01 T01840007  RH  030%=      5-min Rain = 0
KWA1 300122Z 09007KT 18/01 A3008 RMK A01 T01840007  RH  030%=      5-min Rain = 0
KWA1 300123Z 09008KT 18/01 A3008 RMK A01 T01840008  RH  031%=      5-min Rain = 0
KWA1 300124Z 10008KT 18/01 A3008 RMK A01 T01840007  RH  030%=      5-min Rain = 0
KWA1 300125Z 10008KT 18/01 A3008 RMK A01 T01840008  RH  031%=      5-min Rain = 0
KWA1 300126Z 10007KT 18/01 A3008 RMK A01 T01840008  RH  031%=      5-min Rain = 0
KWA1 300127Z 09007KT 18/01 A3008 RMK A01 T01840009  RH  031%=      5-min Rain = 0
KWA1 300128Z 10007KT 18/01 A3008 RMK A01 T01840009  RH  031%=      5-min Rain = 0
KWA1 300129Z 10008KT 18/01 A3008 RMK A01 T01830010  RH  031%=      5-min Rain = 0
KWA1 300130Z 10008KT 18/01 A3008 RMK A01 T01820010  RH  031%=      5-min Rain = 0
KWA1 300131Z 10008KT 18/01 A3008 RMK A01 T01820010  RH  032%=      5-min Rain = 0
KWA1 300132Z 10008KT 18/01 A3008 RMK A01 T01810011  RH  032%=      5-min Rain = 0
KWA1 300133Z 10008KT 18/01 A3008 RMK A01 T01810011  RH  032%=      5-min Rain = 0
KWA1 300134Z 10008KT 18/01 A3008 RMK A01 T01810012  RH  032%=      5-min Rain = 0
KWA1 300135Z 10008KT 18/01 A3008 RMK A01 T01800013  RH  032%=      5-min Rain = 0
KWA1 300136Z 10008KT 18/01 A3009 RMK A01 T01800013  RH  033%=      5-min Rain = 0
KWA1 300137Z 10008KT 18/01 A3009 RMK A01 T01790014  RH  033%=      5-min Rain = 0
KWA1 300138Z 09008KT 18/01 A3009 RMK A01 T01790014  RH  033%=      5-min Rain = 0
KWA1 300139Z 10008KT 18/01 A3009 RMK A01 T01780014  RH  033%=      5-min Rain = 0
KWA1 300140Z 10008KT 18/01 A3009 RMK A01 T01780014  RH  033%=      5-min Rain = 0
KWA1 300141Z 10008KT 18/02 A3009 RMK A01 T01780015  RH  033%=      5-min Rain = 0
KWA1 300142Z 10007KT 18/02 A3009 RMK A01 T01770016  RH  034%=      5-min Rain = 0
KWA1 300143Z 10007KT 18/02 A3009 RMK A01 T01770016  RH  034%=      5-min Rain = 0
KWA1 300144Z 09007KT 18/02 A3009 RMK A01 T01760016  RH  034%=      5-min Rain = 0
KWA1 300145Z 10007KT 18/02 A3009 RMK A01 T01760017  RH  034%=      5-min Rain = 0
KWA1 300146Z 09007KT 18/02 A3009 RMK A01 T01750017  RH  034%=      5-min Rain = 0
KWA1 300147Z 09007KT 18/02 A3009 RMK A01 T01750017  RH  035%=      5-min Rain = 0
KWA1 300148Z 09007KT 18/02 A3009 RMK A01 T01750018  RH  035%=      5-min Rain = 0
KWA1 300149Z 09007KT 18/02 A3009 RMK A01 T01750018  RH  035%=      5-min Rain = 0
KWA1 300150Z 09007KT 18/02 A3009 RMK A01 T01750019  RH  035%=      5-min Rain = 0
KWA1 300151Z 09007KT 17/02 A3009 RMK A01 T01740019  RH  035%=      5-min Rain = 0
KWA1 300152Z 09007KT 17/02 A3009 RMK A01 T01740019  RH  035%=      5-min Rain = 0
KWA1 300153Z 09007KT 17/02 A3009 RMK A01 T01730019  RH  036%=      5-min Rain = 0
KWA1 300154Z 09007KT 17/02 A3009 RMK A01 T01730020  RH  036%=      5-min Rain = 0
KWA1 300155Z 09008KT 17/02 A3009 RMK A01 T01730020  RH  036%=      5-min Rain = 0
KWA1 300156Z 09007KT 17/02 A3009 RMK A01 T01730020  RH  036%=      5-min Rain = 0
KWA1 300157Z 09008KT 17/02 A3009 RMK A01 T01720021  RH  036%=      5-min Rain = 0
KWA1 300158Z 09007KT 17/02 A3009 RMK A01 T01720021  RH  036%=      5-min Rain = 0
KWA1 300159Z 09007KT 17/02 A3009 RMK A01 T01710022  RH  037%=      5-min Rain = 0
KWA1 300200Z 09007KT 17/02 A3009 RMK A01 T01710022  RH  037%=      5-min Rain = 0
KWA1 300201Z 09007KT 17/02 A3009 RMK A01 T01710022  RH  037%=      5-min Rain = 0
KWA1 300202Z 09007KT 17/02 A3009 RMK A01 T01710023  RH  037%=      5-min Rain = 0
KWA1 300203Z 08007KT 17/02 A3009 RMK A01 T01710024  RH  037%=      5-min Rain = 0
KWA1 300204Z 08008KT 17/03 A3009 RMK A01 T01710025  RH  038%=      5-min Rain = 0
KWA1 300205Z 09007KT 17/03 A3009 RMK A01 T01700025  RH  038%=      5-min Rain = 0
KWA1 300206Z 09007KT 17/03 A3009 RMK A01 T01700026  RH  038%=      5-min Rain = 0
KWA1 300207Z 08007KT 17/03 A3009 RMK A01 T01700026  RH  038%=      5-min Rain = 0
KWA1 300208Z 08007KT 17/03 A3009 RMK A01 T01700026  RH  038%=      5-min Rain = 0
KWA1 300209Z 08007KT 17/03 A3009 RMK A01 T01700027  RH  038%=      5-min Rain = 0
KWA1 300210Z 08006KT 17/03 A3009 RMK A01 T01700027  RH  038%=      5-min Rain = 0
KWA1 300211Z 08006KT 17/03 A301 RMK A01 T01690027  RH  039%=      5-min Rain = 0
KWA1 300212Z 08006KT 17/03 A301 RMK A01 T01680028  RH  039%=      5-min Rain = 0
KWA1 300213Z 08006KT 17/03 A301 RMK A01 T01680028  RH  039%=      5-min Rain = 0
KWA1 300214Z 08006KT 17/03 A301 RMK A01 T01670028  RH  039%=      5-min Rain = 0
KWA1 300215Z 08006KT 17/03 A301 RMK A01 T01670029  RH  040%=      5-min Rain = 0
KWA1 300216Z 08006KT 17/03 A301 RMK A01 T01670029  RH  040%=      5-min Rain = 0
KWA1 300217Z 08006KT 17/03 A301 RMK A01 T01660029  RH  040%=      5-min Rain = 0
KWA1 300218Z 08006KT 17/03 A301 RMK A01 T01660030  RH  040%=      5-min Rain = 0
KWA1 300219Z 08006KT 17/03 A3009 RMK A01 T01660030  RH  040%=      5-min Rain = 0
KWA1 300220Z 08006KT 17/03 A3009 RMK A01 T01650030  RH  040%=      5-min Rain = 0
KWA1 300221Z 09006KT 17/03 A3009 RMK A01 T01650030  RH  040%=      5-min Rain = 0
KWA1 300222Z 09006KT 17/03 A3009 RMK A01 T01650031  RH  041%=      5-min Rain = 0
KWA1 300223Z 09006KT 17/03 A3009 RMK A01 T01650031  RH  041%=      5-min Rain = 0
KWA1 300224Z 09006KT 17/03 A3009 RMK A01 T01650031  RH  041%=      5-min Rain = 0
KWA1 300225Z 09007KT 16/03 A3009 RMK A01 T01640031  RH  041%=      5-min Rain = 0
KWA1 300226Z 09006KT 16/03 A3009 RMK A01 T01640031  RH  041%=      5-min Rain = 0
KWA1 300227Z 10006KT 16/03 A3009 RMK A01 T01640032  RH  041%=      5-min Rain = 0
KWA1 300228Z 10007KT 16/03 A3009 RMK A01 T01630032  RH  041%=      5-min Rain = 0
KWA1 300229Z 10007KT 16/03 A3009 RMK A01 T01630032  RH  042%=      5-min Rain = 0
KWA1 300230Z 10007KT 16/03 A3009 RMK A01 T01630033  RH  042%=      5-min Rain = 0
KWA1 300231Z 10008KT 16/03 A3009 RMK A01 T01630033  RH  042%=      5-min Rain = 0
KWA1 300232Z 10008KT 16/03 A3009 RMK A01 T01630033  RH  042%=      5-min Rain = 0
KWA1 300233Z 10008KT 16/03 A3009 RMK A01 T01630033  RH  042%=      5-min Rain = 0
KWA1 300234Z 10007KT 16/03 A3009 RMK A01 T01630033  RH  042%=      5-min Rain = 0
KWA1 300235Z 10007KT 16/03 A3009 RMK A01 T01640034  RH  042%=      5-min Rain = 0
KWA1 300236Z 10007KT 17/03 A3009 RMK A01 T01650034  RH  042%=      5-min Rain = 0
KWA1 300237Z 11007KT 17/03 A3009 RMK A01 T01660034  RH  041%=      5-min Rain = 0
KWA1 300238Z 10008KT 17/03 A3009 RMK A01 T01660034  RH  041%=      5-min Rain = 0
KWA1 300239Z 10007KT 17/04 A3009 RMK A01 T01660035  RH  041%=      5-min Rain = 0
KWA1 300240Z 10006KT 17/04 A3009 RMK A01 T01660035  RH  041%=      5-min Rain = 0
KWA1 300241Z 10006KT 17/04 A3009 RMK A01 T01660035  RH  042%=      5-min Rain = 0
KWA1 300242Z 10006KT 17/04 A3009 RMK A01 T01660035  RH  042%=      5-min Rain = 0
KWA1 300243Z 11006KT 17/04 A3009 RMK A01 T01660035  RH  042%=      5-min Rain = 0
KWA1 300244Z 11007KT 17/04 A3009 RMK A01 T01660035  RH  042%=      5-min Rain = 0
KWA1 300245Z 11006KT 17/04 A3009 RMK A01 T01660036  RH  042%=      5-min Rain = 0
KWA1 300246Z 11006KT 17/04 A3009 RMK A01 T01660036  RH  042%=      5-min Rain = 0
KWA1 300247Z 11006KT 17/04 A3009 RMK A01 T01660036  RH  042%=      5-min Rain = 0
KWA1 300248Z 11006KT 17/04 A3009 RMK A01 T01650036  RH  042%=      5-min Rain = 0
KWA1 300249Z 11006KT 17/04 A3009 RMK A01 T01650036  RH  042%=      5-min Rain = 0
KWA1 300250Z 11006KT 16/04 A3009 RMK A01 T01640036  RH  042%=      5-min Rain = 0
KWA1 300251Z 11005KT 16/04 A3009 RMK A01 T01640036  RH  042%=      5-min Rain = 0
KWA1 300252Z 11006KT 16/04 A3009 RMK A01 T01640037  RH  043%=      5-min Rain = 0
KWA1 300253Z 11006KT 16/04 A3009 RMK A01 T01640037  RH  043%=      5-min Rain = 0
KWA1 300254Z 11006KT 16/04 A3009 RMK A01 T01630037  RH  043%=      5-min Rain = 0
KWA1 300255Z 11005KT 16/04 A3009 RMK A01 T01620037  RH  043%=      5-min Rain = 0
KWA1 300256Z 11005KT 16/04 A301 RMK A01 T01620037  RH  043%=      5-min Rain = 0
KWA1 300257Z 11005KT 16/04 A301 RMK A01 T01610038  RH  044%=      5-min Rain = 0
KWA1 300258Z 11005KT 16/04 A301 RMK A01 T01600038  RH  044%=      5-min Rain = 0
KWA1 300259Z 11005KT 16/04 A301 RMK A01 T01600038  RH  044%=      5-min Rain = 0
KWA1 300300Z 11005KT 16/04 A301 RMK A01 T01590037  RH  044%=      5-min Rain = 0
KWA1 300301Z 11005KT 16/04 A301 RMK A01 T01590038  RH  044%=      5-min Rain = 0
KWA1 300302Z 11005KT 16/04 A301 RMK A01 T01590038  RH  044%=      5-min Rain = 0
KWA1 300303Z 11005KT 16/04 A301 RMK A01 T01580038  RH  044%=      5-min Rain = 0
KWA1 300304Z 11005KT 16/04 A301 RMK A01 T01580038  RH  045%=      5-min Rain = 0
KWA1 300305Z 10005KT 16/04 A301 RMK A01 T01570037  RH  045%=      5-min Rain = 0
KWA1 300306Z 10004KT 16/04 A301 RMK A01 T01570038  RH  045%=      5-min Rain = 0
KWA1 300307Z 10005KT 16/04 A301 RMK A01 T01570037  RH  045%=      5-min Rain = 0
KWA1 300308Z 10005KT 16/04 A301 RMK A01 T01570037  RH  045%=      5-min Rain = 0
KWA1 300309Z 10005KT 16/04 A301 RMK A01 T01560037  RH  045%=      5-min Rain = 0
KWA1 300310Z 10005KT 16/04 A301 RMK A01 T01550037  RH  045%=      5-min Rain = 0
KWA1 300311Z 10006KT 16/04 A301 RMK A01 T01550037  RH  045%=      5-min Rain = 0
KWA1 300312Z 10006KT 16/04 A301 RMK A01 T01550038  RH  046%=      5-min Rain = 0
KWA1 300313Z 11006KT 15/04 A301 RMK A01 T01540038  RH  046%=      5-min Rain = 0
KWA1 300314Z 11006KT 15/04 A301 RMK A01 T01540038  RH  046%=      5-min Rain = 0
KWA1 300315Z 11006KT 15/04 A301 RMK A01 T01540038  RH  046%=      5-min Rain = 0
KWA1 300316Z 11005KT 15/04 A301 RMK A01 T01540039  RH  046%=      5-min Rain = 0
KWA1 300317Z 11005KT 16/04 A301 RMK A01 T01550039  RH  046%=      5-min Rain = 0
KWA1 300318Z 11005KT 16/04 A301 RMK A01 T01550039  RH  046%=      5-min Rain = 0
KWA1 300319Z 11005KT 16/04 A301 RMK A01 T01550039  RH  046%=      5-min Rain = 0
KWA1 300320Z 11006KT 16/04 A301 RMK A01 T01550039  RH  046%=      5-min Rain = 0
KWA1 300321Z 11006KT 16/04 A301 RMK A01 T01550039  RH  046%=      5-min Rain = 0
KWA1 300322Z 11005KT 16/04 A301 RMK A01 T01550039  RH  046%=      5-min Rain = 0
KWA1 300323Z 11006KT 16/04 A301 RMK A01 T01550038  RH  046%=      5-min Rain = 0
KWA1 300324Z 11005KT 16/04 A301 RMK A01 T01550038  RH  046%=      5-min Rain = 0
KWA1 300325Z 11005KT 15/04 A301 RMK A01 T01540038  RH  046%=      5-min Rain = 0
KWA1 300326Z 11005KT 15/04 A301 RMK A01 T01540039  RH  046%=      5-min Rain = 0
KWA1 300327Z 11005KT 15/04 A301 RMK A01 T01540038  RH  046%=      5-min Rain = 0
KWA1 300328Z 11004KT 15/04 A301 RMK A01 T01540038  RH  046%=      5-min Rain = 0
KWA1 300329Z 11004KT 15/04 A301 RMK A01 T01540038  RH  046%=      5-min Rain = 0
KWA1 300330Z 12004KT 15/04 A301 RMK A01 T01540039  RH  046%=      5-min Rain = 0
KWA1 300331Z 11004KT 15/04 A301 RMK A01 T01540039  RH  046%=      5-min Rain = 0
KWA1 300332Z 11004KT 15/04 A301 RMK A01 T01530039  RH  046%=      5-min Rain = 0
KWA1 300333Z 11004KT 15/04 A301 RMK A01 T01530039  RH  046%=      5-min Rain = 0
KWA1 300334Z 11005KT 15/04 A301 RMK A01 T01530038  RH  046%=      5-min Rain = 0
KWA1 300335Z 11005KT 15/04 A301 RMK A01 T01530039  RH  046%=      5-min Rain = 0
KWA1 300336Z 11006KT 15/04 A301 RMK A01 T01530039  RH  046%=      5-min Rain = 0
KWA1 300337Z 11006KT 15/04 A301 RMK A01 T01530038  RH  046%=      5-min Rain = 0
KWA1 300338Z 10006KT 15/04 A301 RMK A01 T01520038  RH  046%=      5-min Rain = 0
KWA1 300339Z 11006KT 15/04 A301 RMK A01 T01520038  RH  047%=      5-min Rain = 0
KWA1 300340Z 11006KT 15/04 A301 RMK A01 T01500038  RH  047%=      5-min Rain = 0
KWA1 300341Z 11005KT 15/04 A301 RMK A01 T01500038  RH  047%=      5-min Rain = 0
KWA1 300342Z 11005KT 15/04 A301 RMK A01 T01500039  RH  047%=      5-min Rain = 0
KWA1 300343Z 10006KT 15/04 A301 RMK A01 T01500039  RH  048%=      5-min Rain = 0
KWA1 300344Z 10006KT 15/04 A3009 RMK A01 T01500039  RH  047%=      5-min Rain = 0
KWA1 300345Z 10006KT 15/04 A3009 RMK A01 T01500038  RH  047%=      5-min Rain = 0
KWA1 300346Z 10006KT 15/04 A301 RMK A01 T01480038  RH  048%=      5-min Rain = 0
KWA1 300347Z 10006KT 15/04 A301 RMK A01 T01470039  RH  048%=      5-min Rain = 0
KWA1 300348Z 11006KT 15/04 A301 RMK A01 T01460039  RH  049%=      5-min Rain = 0
KWA1 300349Z 10005KT 15/04 A301 RMK A01 T01460039  RH  049%=      5-min Rain = 0
KWA1 300350Z 10006KT 15/04 A301 RMK A01 T01460039  RH  049%=      5-min Rain = 0
KWA1 300351Z 10005KT 15/04 A301 RMK A01 T01460039  RH  049%=      5-min Rain = 0
KWA1 300352Z 10005KT 15/04 A301 RMK A01 T01460039  RH  049%=      5-min Rain = 0
KWA1 300353Z 10005KT 15/04 A301 RMK A01 T01460039  RH  049%=      5-min Rain = 0
KWA1 300354Z 09005KT 15/04 A301 RMK A01 T01450040  RH  049%=      5-min Rain = 0
KWA1 300355Z 09005KT 15/04 A301 RMK A01 T01450040  RH  049%=      5-min Rain = 0
KWA1 300356Z 09004KT 15/04 A301 RMK A01 T01450040  RH  049%=      5-min Rain = 0
KWA1 300357Z 09004KT 15/04 A301 RMK A01 T01450040  RH  049%=      5-min Rain = 0
KWA1 300358Z 09004KT 14/04 A301 RMK A01 T01440040  RH  050%=      5-min Rain = 0
KWA1 300359Z 09004KT 14/04 A301 RMK A01 T01440041  RH  050%=      5-min Rain = 0
KWA1 300400Z 09004KT 14/04 A301 RMK A01 T01440042  RH  050%=      5-min Rain = 0
KWA1 300401Z 09004KT 14/04 A301 RMK A01 T01440042  RH  050%=      5-min Rain = 0
KWA1 300402Z 09004KT 15/04 A301 RMK A01 T01450043  RH  051%=      5-min Rain = 0
KWA1 300403Z 09004KT 15/04 A301 RMK A01 T01450044  RH  051%=      5-min Rain = 0
KWA1 300404Z 09004KT 15/04 A3011 RMK A01 T01450044  RH  051%=      5-min Rain = 0
KWA1 300405Z 09005KT 15/05 A3011 RMK A01 T01450045  RH  051%=      5-min Rain = 0
KWA1 300406Z 09005KT 15/05 A301 RMK A01 T01450045  RH  051%=      5-min Rain = 0
KWA1 300407Z 09005KT 15/05 A301 RMK A01 T01460045  RH  051%=      5-min Rain = 0
KWA1 300408Z 09006KT 15/05 A301 RMK A01 T01470045  RH  051%=      5-min Rain = 0
KWA1 300409Z 09006KT 15/05 A301 RMK A01 T01470046  RH  050%=      5-min Rain = 0
KWA1 300410Z 09006KT 15/05 A301 RMK A01 T01480046  RH  050%=      5-min Rain = 0
KWA1 300411Z 09006KT 15/05 A301 RMK A01 T01480046  RH  050%=      5-min Rain = 0
KWA1 300412Z 09006KT 15/05 A301 RMK A01 T01490046  RH  050%=      5-min Rain = 0
KWA1 300413Z 09006KT 15/05 A301 RMK A01 T01490046  RH  050%=      5-min Rain = 0
KWA1 300414Z 09005KT 15/05 A301 RMK A01 T01490046  RH  050%=      5-min Rain = 0
KWA1 300415Z 09005KT 15/05 A301 RMK A01 T01490047  RH  050%=      5-min Rain = 0
KWA1 300416Z 09005KT 15/05 A301 RMK A01 T01500047  RH  050%=      5-min Rain = 0
KWA1 300417Z 09005KT 15/05 A301 RMK A01 T01500047  RH  050%=      5-min Rain = 0
KWA1 300418Z 09005KT 15/05 A301 RMK A01 T01500047  RH  050%=      5-min Rain = 0
KWA1 300419Z 09005KT 15/05 A301 RMK A01 T01500047  RH  050%=      5-min Rain = 0
KWA1 300420Z 10005KT 15/05 A301 RMK A01 T01500048  RH  050%=      5-min Rain = 0
KWA1 300421Z 09005KT 15/05 A301 RMK A01 T01500047  RH  050%=      5-min Rain = 0
KWA1 300422Z 10005KT 15/05 A301 RMK A01 T01500047  RH  050%=      5-min Rain = 0
KWA1 300423Z 09006KT 15/05 A301 RMK A01 T01500046  RH  050%=      5-min Rain = 0
KWA1 300424Z 09006KT 15/05 A301 RMK A01 T01510046  RH  049%=      5-min Rain = 0
KWA1 300425Z 09006KT 15/05 A301 RMK A01 T01510046  RH  049%=      5-min Rain = 0
KWA1 300426Z 09006KT 15/05 A301 RMK A01 T01510046  RH  049%=      5-min Rain = 0
KWA1 300427Z 09006KT 15/05 A301 RMK A01 T01510046  RH  049%=      5-min Rain = 0
KWA1 300428Z 09006KT 15/05 A301 RMK A01 T01520046  RH  049%=      5-min Rain = 0
KWA1 300429Z 09006KT 15/05 A3009 RMK A01 T01520046  RH  049%=      5-min Rain = 0
KWA1 300430Z 09006KT 15/05 A3009 RMK A01 T01520046  RH  049%=      5-min Rain = 0
KWA1 300431Z 09006KT 15/05 A301 RMK A01 T01520046  RH  049%=      5-min Rain = 0
KWA1 300432Z 09006KT 15/05 A301 RMK A01 T01520046  RH  049%=      5-min Rain = 0
KWA1 300433Z 08006KT 15/05 A301 RMK A01 T01520046  RH  049%=      5-min Rain = 0
KWA1 300434Z 08005KT 15/05 A301 RMK A01 T01520047  RH  049%=      5-min Rain = 0
KWA1 300435Z 08005KT 15/05 A301 RMK A01 T01520047  RH  050%=      5-min Rain = 0
KWA1 300436Z 08005KT 15/05 A301 RMK A01 T01520047  RH  050%=      5-min Rain = 0
KWA1 300437Z 08005KT 15/05 A301 RMK A01 T01520048  RH  050%=      5-min Rain = 0
KWA1 300438Z 08005KT 15/05 A301 RMK A01 T01530048  RH  049%=      5-min Rain = 0
KWA1 300439Z 08005KT 15/05 A301 RMK A01 T01530048  RH  049%=      5-min Rain = 0
KWA1 300440Z 07005KT 15/05 A301 RMK A01 T01530048  RH  049%=      5-min Rain = 0
KWA1 300441Z 07005KT 15/05 A301 RMK A01 T01530048  RH  049%=      5-min Rain = 0
KWA1 300442Z 07005KT 15/05 A301 RMK A01 T01530050  RH  050%=      5-min Rain = 0
KWA1 300443Z 06005KT 15/05 A301 RMK A01 T01530053  RH  051%=      5-min Rain = 0
KWA1 300444Z 06005KT 15/05 A301 RMK A01 T01520054  RH  052%=      5-min Rain = 0
KWA1 300445Z 07005KT 15/05 A301 RMK A01 T01510054  RH  052%=      5-min Rain = 0
KWA1 300446Z 07004KT 15/05 A301 RMK A01 T01510054  RH  052%=      5-min Rain = 0
KWA1 300447Z 07004KT 15/06 A301 RMK A01 T01510055  RH  053%=      5-min Rain = 0
KWA1 300448Z 07004KT 15/05 A301 RMK A01 T01500054  RH  053%=      5-min Rain = 0
KWA1 300449Z 07004KT 15/05 A301 RMK A01 T01500053  RH  052%=      5-min Rain = 0
KWA1 300450Z 07004KT 15/05 A301 RMK A01 T01510052  RH  052%=      5-min Rain = 0
KWA1 300451Z 07004KT 15/05 A301 RMK A01 T01500051  RH  051%=      5-min Rain = 0
KWA1 300452Z 07004KT 15/05 A301 RMK A01 T01510051  RH  051%=      5-min Rain = 0
KWA1 300453Z 07004KT 15/05 A301 RMK A01 T01510051  RH  051%=      5-min Rain = 0
KWA1 300454Z 07004KT 15/05 A301 RMK A01 T01510052  RH  051%=      5-min Rain = 0
KWA1 300455Z 07004KT 15/05 A301 RMK A01 T01510052  RH  051%=      5-min Rain = 0
KWA1 300456Z 07005KT 15/05 A301 RMK A01 T01510052  RH  051%=      5-min Rain = 0
KWA1 300457Z 08005KT 15/05 A301 RMK A01 T01510053  RH  052%=      5-min Rain = 0
KWA1 300458Z 07004KT 15/05 A301 RMK A01 T01510052  RH  052%=      5-min Rain = 0
KWA1 300459Z 07004KT 15/05 A301 RMK A01 T01510052  RH  051%=      5-min Rain = 0

Page generated in 0.1371 seconds.